Time,TemperatureF,DewpointF,PressureIn,WindDirection,WindDirectionDegrees,WindSpeedMPH,WindSpeedGustMPH,Humidity,HourlyPrecipIn,Conditions,Clouds,dailyrainin,SoftwareType,DateUTC
2013-03-22 00:00:00,19.0,15.5,30.10,NNE,31,0.0,0.0,86,0.00,,,0.00,Wunderground v.1.15,2013-03-22 05:00:00,
2013-03-22 00:02:00,19.0,15.5,30.10,NNE,31,0.0,0.0,86,0.00,,,0.00,Wunderground v.1.15,2013-03-22 05:02:00,
2013-03-22 00:03:00,19.0,15.5,30.10,NNE,31,0.0,0.0,86,0.00,,,0.00,Wunderground v.1.15,2013-03-22 05:03:00,
2013-03-22 00:05:00,19.1,15.9,30.09,NNE,31,0.0,0.0,87,0.00,,,0.00,Wunderground v.1.15,2013-03-22 05:05:00,
2013-03-22 00:09:00,19.1,15.9,30.09,NNE,31,0.0,0.0,87,0.00,,,0.00,Wunderground v.1.15,2013-03-22 05:09:00,
2013-03-22 00:10:00,19.1,15.9,30.09,NNE,31,0.0,0.0,87,0.00,,,0.00,Wunderground v.1.15,2013-03-22 05:10:00,
2013-03-22 00:11:00,19.2,16.0,30.09,NNE,31,0.0,0.0,87,0.00,,,0.00,Wunderground v.1.15,2013-03-22 05:11:00,
2013-03-22 00:12:00,19.2,16.0,30.09,NNE,31,0.0,0.0,87,0.00,,,0.00,Wunderground v.1.15,2013-03-22 05:12:00,
2013-03-22 00:15:00,19.2,16.0,30.10,NNE,31,0.0,0.0,87,0.00,,,0.00,Wunderground v.1.15,2013-03-22 05:15:00,
2013-03-22 00:18:00,19.2,15.7,30.10,NNE,31,0.0,0.0,86,0.00,,,0.00,Wunderground v.1.15,2013-03-22 05:18:00,
2013-03-22 00:21:00,19.1,15.6,30.10,NNE,31,0.0,0.0,86,0.00,,,0.00,Wunderground v.1.15,2013-03-22 05:21:00,
2013-03-22 00:24:00,19.1,15.6,30.10,NNE,31,0.0,0.0,86,0.00,,,0.00,Wunderground v.1.15,2013-03-22 05:24:00,
2013-03-22 00:25:00,19.0,15.5,30.10,NNE,31,0.0,0.0,86,0.00,,,0.00,Wunderground v.1.15,2013-03-22 05:25:00,
2013-03-22 00:30:00,18.8,15.3,30.10,NNE,31,0.0,0.0,86,0.00,,,0.00,Wunderground v.1.15,2013-03-22 05:30:00,
2013-03-22 00:31:00,18.8,15.3,30.10,NNE,31,0.0,0.0,86,0.00,,,0.00,Wunderground v.1.15,2013-03-22 05:31:00,
2013-03-22 00:33:00,18.8,15.6,30.10,NNE,31,0.0,0.0,87,0.00,,,0.00,Wunderground v.1.15,2013-03-22 05:33:00,
2013-03-22 00:34:00,18.8,15.6,30.10,NNE,31,0.0,0.0,87,0.00,,,0.00,Wunderground v.1.15,2013-03-22 05:34:00,
2013-03-22 00:38:00,18.7,15.5,30.10,NNE,31,0.0,0.0,87,0.00,,,0.00,Wunderground v.1.15,2013-03-22 05:38:00,
2013-03-22 00:40:00,18.6,15.4,30.10,NNE,31,0.0,0.0,87,0.00,,,0.00,Wunderground v.1.15,2013-03-22 05:40:00,
2013-03-22 00:42:00,18.6,15.4,30.10,NNE,31,0.0,0.0,87,0.00,,,0.00,Wunderground v.1.15,2013-03-22 05:42:00,
2013-03-22 00:44:00,18.6,15.4,30.10,NNE,31,0.0,0.0,87,0.00,,,0.00,Wunderground v.1.15,2013-03-22 05:44:00,
2013-03-22 00:45:00,18.5,15.3,30.10,NNE,31,0.0,0.0,87,0.00,,,0.00,Wunderground v.1.15,2013-03-22 05:45:00,
2013-03-22 00:46:00,18.5,15.3,30.10,NNE,31,0.0,0.0,87,0.00,,,0.00,Wunderground v.1.15,2013-03-22 05:46:00,
2013-03-22 00:48:00,18.4,15.2,30.10,NNE,31,0.0,0.0,87,0.00,,,0.00,Wunderground v.1.15,2013-03-22 05:48:00,
2013-03-22 00:52:00,18.3,15.1,30.10,NNE,31,0.0,0.0,87,0.00,,,0.00,Wunderground v.1.15,2013-03-22 05:52:00,
2013-03-22 00:55:00,18.2,15.0,30.10,NNE,31,0.0,0.0,87,0.00,,,0.00,Wunderground v.1.15,2013-03-22 05:55:00,
2013-03-22 00:58:00,18.1,14.9,30.10,NNE,31,0.0,0.0,87,0.00,,,0.00,Wunderground v.1.15,2013-03-22 05:58:00,
2013-03-22 01:00:00,18.0,14.8,30.10,NNE,31,0.0,0.0,87,0.00,,,0.00,Wunderground v.1.15,2013-03-22 06:00:00,
2013-03-22 01:01:00,18.0,14.8,30.10,NNE,31,0.0,0.0,87,0.00,,,0.00,Wunderground v.1.15,2013-03-22 06:01:00,
2013-03-22 01:03:00,17.9,14.7,30.10,NNE,31,0.0,0.0,87,0.00,,,0.00,Wunderground v.1.15,2013-03-22 06:03:00,
2013-03-22 01:04:00,17.9,14.7,30.10,NNE,31,0.0,0.0,87,0.00,,,0.00,Wunderground v.1.15,2013-03-22 06:04:00,
2013-03-22 01:05:00,17.8,14.6,30.10,NNE,31,0.0,0.0,87,0.00,,,0.00,Wunderground v.1.15,2013-03-22 06:05:00,
2013-03-22 01:07:00,17.7,14.5,30.10,NNE,31,0.0,0.0,87,0.00,,,0.00,Wunderground v.1.15,2013-03-22 06:07:00,
2013-03-22 01:10:00,17.6,14.4,30.10,NNE,31,0.0,0.0,87,0.00,,,0.00,Wunderground v.1.15,2013-03-22 06:10:00,
2013-03-22 01:11:00,17.6,14.4,30.10,NNE,31,0.0,0.0,87,0.00,,,0.00,Wunderground v.1.15,2013-03-22 06:11:00,
2013-03-22 01:12:00,17.5,14.3,30.10,NNE,31,0.0,0.0,87,0.00,,,0.00,Wunderground v.1.15,2013-03-22 06:12:00,
2013-03-22 01:14:00,17.5,14.3,30.10,NNE,31,0.0,0.0,87,0.00,,,0.00,Wunderground v.1.15,2013-03-22 06:14:00,
2013-03-22 01:15:00,17.3,14.1,30.10,NNE,31,0.0,0.0,87,0.00,,,0.00,Wunderground v.1.15,2013-03-22 06:15:00,
2013-03-22 01:18:00,17.2,14.0,30.10,NNE,31,0.0,0.0,87,0.00,,,0.00,Wunderground v.1.15,2013-03-22 06:18:00,
2013-03-22 01:23:00,17.0,13.8,30.10,NNE,31,0.0,0.0,87,0.00,,,0.00,Wunderground v.1.15,2013-03-22 06:23:00,
2013-03-22 01:25:00,16.8,13.6,30.10,NNE,31,0.0,0.0,87,0.00,,,0.00,Wunderground v.1.15,2013-03-22 06:25:00,
2013-03-22 01:28:00,16.7,13.5,30.10,NNE,31,0.0,0.0,87,0.00,,,0.00,Wunderground v.1.15,2013-03-22 06:28:00,
2013-03-22 01:31:00,16.5,13.3,30.10,NNE,31,0.0,0.0,87,0.00,,,0.00,Wunderground v.1.15,2013-03-22 06:31:00,
2013-03-22 01:34:00,16.3,13.1,30.10,NNE,31,0.0,0.0,87,0.00,,,0.00,Wunderground v.1.15,2013-03-22 06:34:00,
2013-03-22 01:36:00,16.3,13.1,30.10,NNE,31,0.0,0.0,87,0.00,,,0.00,Wunderground v.1.15,2013-03-22 06:36:00,
2013-03-22 01:38:00,16.2,13.3,30.10,NNE,31,0.0,0.0,88,0.00,,,0.00,Wunderground v.1.15,2013-03-22 06:38:00,
2013-03-22 01:39:00,16.2,13.3,30.10,NNE,31,0.0,0.0,88,0.00,,,0.00,Wunderground v.1.15,2013-03-22 06:39:00,
2013-03-22 01:42:00,16.2,13.3,30.10,NNE,31,0.0,0.0,88,0.00,,,0.00,Wunderground v.1.15,2013-03-22 06:42:00,
2013-03-22 01:43:00,16.2,13.3,30.10,NNE,31,0.0,0.0,88,0.00,,,0.00,Wunderground v.1.15,2013-03-22 06:43:00,
2013-03-22 01:45:00,16.2,13.5,30.10,NNE,31,0.0,0.0,89,0.00,,,0.00,Wunderground v.1.15,2013-03-22 06:45:00,
2013-03-22 01:47:00,16.2,13.5,30.10,NNE,31,0.0,0.0,89,0.00,,,0.00,Wunderground v.1.15,2013-03-22 06:47:00,
2013-03-22 01:49:00,16.3,13.6,30.10,NNE,31,0.0,0.0,89,0.00,,,0.00,Wunderground v.1.15,2013-03-22 06:49:00,
2013-03-22 01:50:00,16.3,13.6,30.10,NNE,31,0.0,0.0,89,0.00,,,0.00,Wunderground v.1.15,2013-03-22 06:50:00,
2013-03-22 01:52:00,16.4,13.7,30.10,NNE,31,0.0,0.0,89,0.00,,,0.00,Wunderground v.1.15,2013-03-22 06:52:00,
2013-03-22 01:54:00,16.5,14.1,30.10,NNE,31,0.0,0.0,90,0.00,,,0.00,Wunderground v.1.15,2013-03-22 06:54:00,
2013-03-22 01:57:00,16.6,13.9,30.10,NNE,31,0.0,0.0,89,0.00,,,0.00,Wunderground v.1.15,2013-03-22 06:57:00,
2013-03-22 01:58:00,16.6,13.9,30.10,NNE,31,0.0,0.0,89,0.00,,,0.00,Wunderground v.1.15,2013-03-22 06:58:00,
2013-03-22 02:00:00,16.6,13.9,30.10,NNE,31,0.0,0.0,89,0.00,,,0.00,Wunderground v.1.15,2013-03-22 07:00:00,
2013-03-22 02:04:00,16.7,14.0,30.10,NNE,31,0.0,0.0,89,0.00,,,0.00,Wunderground v.1.15,2013-03-22 07:04:00,
2013-03-22 02:05:00,16.7,14.0,30.10,NNE,31,0.0,0.0,89,0.00,,,0.00,Wunderground v.1.15,2013-03-22 07:05:00,
2013-03-22 02:07:00,16.6,13.9,30.10,NNE,31,0.0,0.0,89,0.00,,,0.00,Wunderground v.1.15,2013-03-22 07:07:00,
2013-03-22 02:09:00,16.6,13.9,30.10,NNE,31,0.0,0.0,89,0.00,,,0.00,Wunderground v.1.15,2013-03-22 07:09:00,
2013-03-22 02:10:00,16.6,13.9,30.10,NNE,31,0.0,0.0,89,0.00,,,0.00,Wunderground v.1.15,2013-03-22 07:10:00,
2013-03-22 02:11:00,16.6,13.9,30.10,NNE,31,0.0,0.0,89,0.00,,,0.00,Wunderground v.1.15,2013-03-22 07:11:00,
2013-03-22 02:17:00,16.6,13.9,30.10,NNE,31,0.0,0.0,89,0.00,,,0.00,Wunderground v.1.15,2013-03-22 07:17:00,
2013-03-22 02:18:00,16.6,13.9,30.10,NNE,31,0.0,0.0,89,0.00,,,0.00,Wunderground v.1.15,2013-03-22 07:18:00,
2013-03-22 02:19:00,16.6,13.9,30.10,NNE,31,0.0,0.0,89,0.00,,,0.00,Wunderground v.1.15,2013-03-22 07:19:00,
2013-03-22 02:21:00,16.6,13.9,30.10,NNE,31,0.0,0.0,89,0.00,,,0.00,Wunderground v.1.15,2013-03-22 07:21:00,
2013-03-22 02:23:00,16.6,13.9,30.10,NNE,31,0.0,0.0,89,0.00,,,0.00,Wunderground v.1.15,2013-03-22 07:23:00,
2013-03-22 02:27:00,16.4,13.7,30.10,NNE,31,0.0,0.0,89,0.00,,,0.00,Wunderground v.1.15,2013-03-22 07:27:00,
2013-03-22 02:28:00,16.4,13.7,30.10,NNE,31,0.0,0.0,89,0.00,,,0.00,Wunderground v.1.15,2013-03-22 07:28:00,
2013-03-22 02:30:00,16.3,13.6,30.10,NNE,31,0.0,0.0,89,0.00,,,0.00,Wunderground v.1.15,2013-03-22 07:30:00,
2013-03-22 02:32:00,16.2,13.3,30.10,NNE,31,0.0,0.0,88,0.00,,,0.00,Wunderground v.1.15,2013-03-22 07:32:00,
2013-03-22 02:34:00,16.2,13.3,30.10,NNE,31,0.0,0.0,88,0.00,,,0.00,Wunderground v.1.15,2013-03-22 07:34:00,
2013-03-22 02:35:00,16.1,13.4,30.10,NNE,31,0.0,0.0,89,0.00,,,0.00,Wunderground v.1.15,2013-03-22 07:35:00,
2013-03-22 02:37:00,16.1,13.4,30.10,NNE,31,0.0,0.0,89,0.00,,,0.00,Wunderground v.1.15,2013-03-22 07:37:00,
2013-03-22 02:38:00,16.1,13.4,30.10,NNE,31,0.0,0.0,89,0.00,,,0.00,Wunderground v.1.15,2013-03-22 07:38:00,
2013-03-22 02:43:00,16.2,13.5,30.10,NNE,31,0.0,0.0,89,0.00,,,0.00,Wunderground v.1.15,2013-03-22 07:43:00,
2013-03-22 02:44:00,16.2,13.5,30.10,NNE,31,0.0,0.0,89,0.00,,,0.00,Wunderground v.1.15,2013-03-22 07:44:00,
2013-03-22 02:45:00,16.2,13.5,30.10,NNE,31,0.0,0.0,89,0.00,,,0.00,Wunderground v.1.15,2013-03-22 07:45:00,
2013-03-22 02:47:00,16.2,13.8,30.10,NNE,31,0.0,0.0,90,0.00,,,0.00,Wunderground v.1.15,2013-03-22 07:47:00,
2013-03-22 02:50:00,16.2,13.8,30.10,NNE,31,0.0,0.0,90,0.00,,,0.00,Wunderground v.1.15,2013-03-22 07:50:00,
2013-03-22 02:51:00,16.2,13.8,30.10,NNE,31,0.0,0.0,90,0.00,,,0.00,Wunderground v.1.15,2013-03-22 07:51:00,
2013-03-22 02:54:00,16.2,13.8,30.10,NNE,31,0.0,0.0,90,0.00,,,0.00,Wunderground v.1.15,2013-03-22 07:54:00,
2013-03-22 02:55:00,16.2,13.5,30.10,NNE,31,0.0,0.0,89,0.00,,,0.00,Wunderground v.1.15,2013-03-22 07:55:00,
2013-03-22 02:56:00,16.1,13.4,30.10,NNE,31,0.0,0.0,89,0.00,,,0.00,Wunderground v.1.15,2013-03-22 07:56:00,
2013-03-22 02:57:00,16.1,13.4,30.10,NNE,31,0.0,0.0,89,0.00,,,0.00,Wunderground v.1.15,2013-03-22 07:57:00,
2013-03-22 02:59:00,16.1,13.7,30.10,NNE,31,0.0,0.0,90,0.00,,,0.00,Wunderground v.1.15,2013-03-22 07:59:00,
2013-03-22 03:02:00,16.1,13.4,30.10,NNE,31,0.0,0.0,89,0.00,,,0.00,Wunderground v.1.15,2013-03-22 08:02:00,
2013-03-22 03:04:00,16.0,13.3,30.10,NNE,31,0.0,0.0,89,0.00,,,0.00,Wunderground v.1.15,2013-03-22 08:04:00,
2013-03-22 03:05:00,16.0,13.3,30.10,NNE,31,0.0,0.0,89,0.00,,,0.00,Wunderground v.1.15,2013-03-22 08:05:00,
2013-03-22 03:07:00,16.0,13.3,30.10,NNE,31,0.0,0.0,89,0.00,,,0.00,Wunderground v.1.15,2013-03-22 08:07:00,
2013-03-22 03:10:00,16.0,13.3,30.10,NNE,31,0.0,0.0,89,0.00,,,0.00,Wunderground v.1.15,2013-03-22 08:10:00,
2013-03-22 03:12:00,15.9,13.2,30.10,NNE,31,0.0,0.0,89,0.00,,,0.00,Wunderground v.1.15,2013-03-22 08:12:00,
2013-03-22 03:13:00,15.9,13.2,30.10,NNE,31,0.0,0.0,89,0.00,,,0.00,Wunderground v.1.15,2013-03-22 08:13:00,
2013-03-22 03:16:00,15.9,13.2,30.10,NNE,31,0.0,0.0,89,0.00,,,0.00,Wunderground v.1.15,2013-03-22 08:16:00,
2013-03-22 03:17:00,15.9,13.2,30.10,NNE,31,0.0,0.0,89,0.00,,,0.00,Wunderground v.1.15,2013-03-22 08:17:00,
2013-03-22 03:20:00,15.8,13.1,30.10,NNE,31,0.0,0.0,89,0.00,,,0.00,Wunderground v.1.15,2013-03-22 08:20:00,
2013-03-22 03:23:00,15.8,13.1,30.10,NNE,31,0.0,0.0,89,0.00,,,0.00,Wunderground v.1.15,2013-03-22 08:23:00,
2013-03-22 03:24:00,15.8,13.1,30.10,NNE,31,0.0,0.0,89,0.00,,,0.00,Wunderground v.1.15,2013-03-22 08:24:00,
2013-03-22 03:25:00,15.7,13.0,30.10,NNE,31,0.0,0.0,89,0.00,,,0.00,Wunderground v.1.15,2013-03-22 08:25:00,
2013-03-22 03:26:00,15.7,13.3,30.10,NNE,31,0.0,0.0,90,0.00,,,0.00,Wunderground v.1.15,2013-03-22 08:26:00,
2013-03-22 03:28:00,15.7,13.3,30.10,NNE,31,0.0,0.0,90,0.00,,,0.00,Wunderground v.1.15,2013-03-22 08:28:00,
2013-03-22 03:31:00,15.6,12.9,30.10,NNE,31,0.0,0.0,89,0.00,,,0.00,Wunderground v.1.15,2013-03-22 08:31:00,
2013-03-22 03:32:00,15.6,12.9,30.10,NNE,31,0.0,0.0,89,0.00,,,0.00,Wunderground v.1.15,2013-03-22 08:32:00,
2013-03-22 03:37:00,15.4,12.7,30.10,NNE,31,0.0,0.0,89,0.00,,,0.00,Wunderground v.1.15,2013-03-22 08:37:00,
2013-03-22 03:39:00,15.4,12.7,30.10,NNE,31,0.0,0.0,89,0.00,,,0.00,Wunderground v.1.15,2013-03-22 08:39:00,
2013-03-22 03:42:00,15.3,12.6,30.10,NNE,31,0.0,0.0,89,0.00,,,0.00,Wunderground v.1.15,2013-03-22 08:42:00,
2013-03-22 03:44:00,15.2,12.5,30.10,NNE,31,0.0,0.0,89,0.00,,,0.00,Wunderground v.1.15,2013-03-22 08:44:00,
2013-03-22 03:45:00,15.2,12.5,30.10,NNE,31,0.0,0.0,89,0.00,,,0.00,Wunderground v.1.15,2013-03-22 08:45:00,
2013-03-22 03:48:00,15.1,12.4,30.10,NNE,31,0.0,0.0,89,0.00,,,0.00,Wunderground v.1.15,2013-03-22 08:48:00,
2013-03-22 03:53:00,15.1,12.7,30.10,NNE,31,0.0,0.0,90,0.00,,,0.00,Wunderground v.1.15,2013-03-22 08:53:00,
2013-03-22 03:54:00,15.1,12.7,30.10,NNE,31,0.0,0.0,90,0.00,,,0.00,Wunderground v.1.15,2013-03-22 08:54:00,
2013-03-22 03:58:00,15.0,12.3,30.10,NNE,31,0.0,0.0,89,0.00,,,0.00,Wunderground v.1.15,2013-03-22 08:58:00,
2013-03-22 04:00:00,14.9,12.2,30.10,NNE,31,0.0,0.0,89,0.00,,,0.00,Wunderground v.1.15,2013-03-22 09:00:00,
2013-03-22 04:02:00,14.8,12.1,30.10,NNE,31,0.0,0.0,89,0.00,,,0.00,Wunderground v.1.15,2013-03-22 09:02:00,
2013-03-22 04:04:00,14.7,12.0,30.10,NNE,31,0.0,0.0,89,0.00,,,0.00,Wunderground v.1.15,2013-03-22 09:04:00,
2013-03-22 04:08:00,14.6,11.9,30.10,NNE,31,0.0,0.0,89,0.00,,,0.00,Wunderground v.1.15,2013-03-22 09:08:00,
2013-03-22 04:09:00,14.5,11.9,30.10,NNE,31,0.0,0.0,89,0.00,,,0.00,Wunderground v.1.15,2013-03-22 09:09:00,
2013-03-22 04:10:00,14.5,11.9,30.10,NNE,31,0.0,0.0,89,0.00,,,0.00,Wunderground v.1.15,2013-03-22 09:10:00,
2013-03-22 04:12:00,14.5,12.1,30.10,NNE,31,0.0,0.0,90,0.00,,,0.00,Wunderground v.1.15,2013-03-22 09:12:00,
2013-03-22 04:14:00,14.6,12.2,30.10,NNE,31,0.0,0.0,90,0.00,,,0.00,Wunderground v.1.15,2013-03-22 09:14:00,
2013-03-22 04:15:00,14.7,12.3,30.10,NNE,31,0.0,0.0,90,0.00,,,0.00,Wunderground v.1.15,2013-03-22 09:15:00,
2013-03-22 04:19:00,14.9,12.7,30.10,NNE,31,0.0,0.0,91,0.00,,,0.00,Wunderground v.1.15,2013-03-22 09:19:00,
2013-03-22 04:20:00,15.0,12.8,30.10,NNE,31,0.0,0.0,91,0.00,,,0.00,Wunderground v.1.15,2013-03-22 09:20:00,
2013-03-22 04:22:00,15.1,12.9,30.09,NNE,31,0.0,0.0,91,0.00,,,0.00,Wunderground v.1.15,2013-03-22 09:22:00,
2013-03-22 04:24:00,15.2,13.0,30.10,NNE,31,0.0,0.0,91,0.00,,,0.00,Wunderground v.1.15,2013-03-22 09:24:00,
2013-03-22 04:25:00,15.3,13.1,30.10,NNE,31,0.0,0.0,91,0.00,,,0.00,Wunderground v.1.15,2013-03-22 09:25:00,
2013-03-22 04:27:00,15.4,13.2,30.10,NNE,31,0.0,0.0,91,0.00,,,0.00,Wunderground v.1.15,2013-03-22 09:27:00,
2013-03-22 04:30:00,15.5,13.3,30.10,NNE,31,0.0,0.0,91,0.00,,,0.00,Wunderground v.1.15,2013-03-22 09:30:00,
2013-03-22 04:32:00,15.5,13.3,30.10,NNE,31,0.0,0.0,91,0.00,,,0.00,Wunderground v.1.15,2013-03-22 09:32:00,
2013-03-22 04:34:00,15.5,13.3,30.10,NNE,31,0.0,0.0,91,0.00,,,0.00,Wunderground v.1.15,2013-03-22 09:34:00,
2013-03-22 04:37:00,15.5,13.1,30.10,NNE,31,0.0,0.0,90,0.00,,,0.00,Wunderground v.1.15,2013-03-22 09:37:00,
2013-03-22 04:38:00,15.5,13.1,30.10,NNE,31,0.0,0.0,90,0.00,,,0.00,Wunderground v.1.15,2013-03-22 09:38:00,
2013-03-22 04:40:00,15.5,13.1,30.10,NNE,31,0.0,0.0,90,0.00,,,0.00,Wunderground v.1.15,2013-03-22 09:40:00,
2013-03-22 04:43:00,15.4,13.0,30.10,NNE,31,0.0,0.0,90,0.00,,,0.00,Wunderground v.1.15,2013-03-22 09:43:00,
2013-03-22 04:44:00,15.4,13.0,30.10,NNE,31,0.0,0.0,90,0.00,,,0.00,Wunderground v.1.15,2013-03-22 09:44:00,
2013-03-22 04:45:00,15.3,12.9,30.10,NNE,31,0.0,0.0,90,0.00,,,0.00,Wunderground v.1.15,2013-03-22 09:45:00,
2013-03-22 04:46:00,15.3,12.9,30.10,NNE,31,0.0,0.0,90,0.00,,,0.00,Wunderground v.1.15,2013-03-22 09:46:00,
2013-03-22 04:50:00,15.2,12.8,30.10,NNE,31,0.0,0.0,90,0.00,,,0.00,Wunderground v.1.15,2013-03-22 09:50:00,
2013-03-22 04:52:00,15.2,12.8,30.10,NNE,31,0.0,0.0,90,0.00,,,0.00,Wunderground v.1.15,2013-03-22 09:52:00,
2013-03-22 04:55:00,15.1,12.7,30.10,NNE,31,0.0,0.0,90,0.00,,,0.00,Wunderground v.1.15,2013-03-22 09:55:00,
2013-03-22 04:57:00,15.1,12.7,30.10,NNE,31,0.0,0.0,90,0.00,,,0.00,Wunderground v.1.15,2013-03-22 09:57:00,
2013-03-22 04:58:00,15.1,12.7,30.09,NNE,31,0.0,0.0,90,0.00,,,0.00,Wunderground v.1.15,2013-03-22 09:58:00,
2013-03-22 04:59:00,15.0,12.6,30.09,NNE,31,0.0,0.0,90,0.00,,,0.00,Wunderground v.1.15,2013-03-22 09:59:00,
2013-03-22 05:01:00,15.0,12.6,30.09,NNE,31,0.0,0.0,90,0.00,,,0.00,Wunderground v.1.15,2013-03-22 10:01:00,
2013-03-22 05:04:00,15.0,12.6,30.09,NNE,31,0.0,0.0,90,0.00,,,0.00,Wunderground v.1.15,2013-03-22 10:04:00,
2013-03-22 05:05:00,14.9,12.5,30.09,NNE,31,0.0,0.0,90,0.00,,,0.00,Wunderground v.1.15,2013-03-22 10:05:00,
2013-03-22 05:08:00,14.9,12.5,30.09,NNE,31,0.0,0.0,90,0.00,,,0.00,Wunderground v.1.15,2013-03-22 10:08:00,
2013-03-22 05:09:00,14.9,12.5,30.09,NNE,31,0.0,0.0,90,0.00,,,0.00,Wunderground v.1.15,2013-03-22 10:09:00,
2013-03-22 05:11:00,14.8,12.4,30.09,NNE,31,0.0,0.0,90,0.00,,,0.00,Wunderground v.1.15,2013-03-22 10:11:00,
2013-03-22 05:14:00,14.8,12.4,30.10,NNE,31,0.0,0.0,90,0.00,,,0.00,Wunderground v.1.15,2013-03-22 10:14:00,
2013-03-22 05:15:00,14.8,12.4,30.09,NNE,31,0.0,0.0,90,0.00,,,0.00,Wunderground v.1.15,2013-03-22 10:15:00,
2013-03-22 05:16:00,14.7,12.3,30.09,NNE,31,0.0,0.0,90,0.00,,,0.00,Wunderground v.1.15,2013-03-22 10:16:00,
2013-03-22 05:19:00,14.7,12.3,30.10,NNE,31,0.0,0.0,90,0.00,,,0.00,Wunderground v.1.15,2013-03-22 10:19:00,
2013-03-22 05:20:00,14.6,12.2,30.10,NNE,31,0.0,0.0,90,0.00,,,0.00,Wunderground v.1.15,2013-03-22 10:20:00,
2013-03-22 05:21:00,14.7,12.3,30.10,NNE,31,0.0,0.0,90,0.00,,,0.00,Wunderground v.1.15,2013-03-22 10:21:00,
2013-03-22 05:22:00,14.7,12.3,30.09,NNE,31,0.0,0.0,90,0.00,,,0.00,Wunderground v.1.15,2013-03-22 10:22:00,
2013-03-22 05:27:00,14.9,12.7,30.09,NNE,31,0.0,0.0,91,0.00,,,0.00,Wunderground v.1.15,2013-03-22 10:27:00,
2013-03-22 05:28:00,14.9,12.7,30.09,NNE,31,0.0,0.0,91,0.00,,,0.00,Wunderground v.1.15,2013-03-22 10:28:00,
2013-03-22 05:30:00,15.1,12.9,30.09,NNE,31,0.0,0.0,91,0.00,,,0.00,Wunderground v.1.15,2013-03-22 10:30:00,
2013-03-22 05:32:00,15.2,13.0,30.09,NNE,31,0.0,0.0,91,0.00,,,0.00,Wunderground v.1.15,2013-03-22 10:32:00,
2013-03-22 05:33:00,15.2,13.0,30.09,NNE,31,0.0,0.0,91,0.00,,,0.00,Wunderground v.1.15,2013-03-22 10:33:00,
2013-03-22 05:35:00,15.3,13.1,30.09,NNE,31,0.0,0.0,91,0.00,,,0.00,Wunderground v.1.15,2013-03-22 10:35:00,
2013-03-22 05:39:00,15.4,13.2,30.10,NNE,31,0.0,0.0,91,0.00,,,0.00,Wunderground v.1.15,2013-03-22 10:39:00,
2013-03-22 05:40:00,15.5,13.3,30.10,NNE,31,0.0,0.0,91,0.00,,,0.00,Wunderground v.1.15,2013-03-22 10:40:00,
2013-03-22 05:44:00,15.5,13.3,30.10,NNE,31,0.0,0.0,91,0.00,,,0.00,Wunderground v.1.15,2013-03-22 10:44:00,
2013-03-22 05:45:00,15.5,13.3,30.10,NNE,31,0.0,0.0,91,0.00,,,0.00,Wunderground v.1.15,2013-03-22 10:45:00,
2013-03-22 05:47:00,15.5,13.3,30.10,NNE,31,0.0,0.0,91,0.00,,,0.00,Wunderground v.1.15,2013-03-22 10:47:00,
2013-03-22 05:49:00,15.5,13.3,30.10,NNE,31,0.0,0.0,91,0.00,,,0.00,Wunderground v.1.15,2013-03-22 10:49:00,
2013-03-22 05:51:00,15.5,13.1,30.09,NNE,31,0.0,0.0,90,0.00,,,0.00,Wunderground v.1.15,2013-03-22 10:51:00,
2013-03-22 05:53:00,15.5,13.1,30.10,NNE,31,0.0,0.0,90,0.00,,,0.00,Wunderground v.1.15,2013-03-22 10:53:00,
2013-03-22 05:57:00,15.6,13.4,30.09,NNE,31,0.0,0.0,91,0.00,,,0.00,Wunderground v.1.15,2013-03-22 10:57:00,
2013-03-22 05:58:00,15.6,13.4,30.10,NNE,31,0.0,0.0,91,0.00,,,0.00,Wunderground v.1.15,2013-03-22 10:58:00,
2013-03-22 05:59:00,15.6,13.4,30.10,NNE,31,0.0,0.0,91,0.00,,,0.00,Wunderground v.1.15,2013-03-22 10:59:00,
2013-03-22 06:00:00,15.6,13.4,30.10,NNE,31,0.0,0.0,91,0.00,,,0.00,Wunderground v.1.15,2013-03-22 11:00:00,
2013-03-22 06:05:00,15.7,13.5,30.09,NNE,31,0.0,0.0,91,0.00,,,0.00,Wunderground v.1.15,2013-03-22 11:05:00,
2013-03-22 06:07:00,15.7,13.5,30.09,NNE,31,0.0,0.0,91,0.00,,,0.00,Wunderground v.1.15,2013-03-22 11:07:00,
2013-03-22 06:12:00,15.7,13.3,30.10,NNE,31,0.0,0.0,90,0.00,,,0.00,Wunderground v.1.15,2013-03-22 11:12:00,
2013-03-22 06:13:00,15.7,13.3,30.10,NNE,31,0.0,0.0,90,0.00,,,0.00,Wunderground v.1.15,2013-03-22 11:13:00,
2013-03-22 06:14:00,15.7,13.3,30.10,NNE,31,0.0,0.0,90,0.00,,,0.00,Wunderground v.1.15,2013-03-22 11:14:00,
2013-03-22 06:16:00,15.6,13.2,30.09,NNE,31,0.0,0.0,90,0.00,,,0.00,Wunderground v.1.15,2013-03-22 11:16:00,
2013-03-22 06:20:00,15.5,13.1,30.09,NNE,31,0.0,0.0,90,0.00,,,0.00,Wunderground v.1.15,2013-03-22 11:20:00,
2013-03-22 06:22:00,15.5,13.1,30.09,NNE,31,0.0,0.0,90,0.00,,,0.00,Wunderground v.1.15,2013-03-22 11:22:00,
2013-03-22 06:23:00,15.4,13.0,30.09,NNE,31,0.0,0.0,90,0.00,,,0.00,Wunderground v.1.15,2013-03-22 11:23:00,
2013-03-22 06:26:00,15.4,13.0,30.09,NNE,31,0.0,0.0,90,0.00,,,0.00,Wunderground v.1.15,2013-03-22 11:26:00,
2013-03-22 06:27:00,15.4,13.0,30.09,NNE,31,0.0,0.0,90,0.00,,,0.00,Wunderground v.1.15,2013-03-22 11:27:00,
2013-03-22 06:29:00,15.4,13.0,30.10,NNE,31,0.0,0.0,90,0.00,,,0.00,Wunderground v.1.15,2013-03-22 11:29:00,
2013-03-22 06:32:00,15.4,13.0,30.10,NNE,31,0.0,0.0,90,0.00,,,0.00,Wunderground v.1.15,2013-03-22 11:32:00,
2013-03-22 06:33:00,15.4,13.0,30.10,NNE,31,0.0,0.0,90,0.00,,,0.00,Wunderground v.1.15,2013-03-22 11:33:00,
2013-03-22 06:35:00,15.3,12.9,30.09,NNE,31,0.0,0.0,90,0.00,,,0.00,Wunderground v.1.15,2013-03-22 11:35:00,
2013-03-22 06:36:00,15.4,13.0,30.09,NNE,31,0.0,0.0,90,0.00,,,0.00,Wunderground v.1.15,2013-03-22 11:36:00,
2013-03-22 06:38:00,15.3,12.9,30.10,NNE,31,0.0,0.0,90,0.00,,,0.00,Wunderground v.1.15,2013-03-22 11:38:00,
2013-03-22 06:43:00,15.3,12.9,30.10,NNE,31,0.0,0.0,90,0.00,,,0.00,Wunderground v.1.15,2013-03-22 11:43:00,
2013-03-22 06:45:00,15.3,12.9,30.10,NNE,31,0.0,0.0,90,0.00,,,0.00,Wunderground v.1.15,2013-03-22 11:45:00,
2013-03-22 06:49:00,15.4,13.0,30.10,NNE,31,0.0,0.0,90,0.00,,,0.00,Wunderground v.1.15,2013-03-22 11:49:00,
2013-03-22 06:52:00,15.4,13.0,30.10,NNE,31,0.0,0.0,90,0.00,,,0.00,Wunderground v.1.15,2013-03-22 11:52:00,
2013-03-22 06:54:00,15.4,13.0,30.10,NNE,31,0.0,0.0,90,0.00,,,0.00,Wunderground v.1.15,2013-03-22 11:54:00,
2013-03-22 06:56:00,15.4,13.0,30.10,NNE,31,0.0,0.0,90,0.00,,,0.00,Wunderground v.1.15,2013-03-22 11:56:00,
2013-03-22 06:59:00,15.4,13.0,30.10,NNE,31,0.0,0.0,90,0.00,,,0.00,Wunderground v.1.15,2013-03-22 11:59:00,
2013-03-22 07:00:00,15.4,13.0,30.10,NNE,31,0.0,0.0,90,0.00,,,0.00,Wunderground v.1.15,2013-03-22 12:00:00,
2013-03-22 07:05:00,15.5,13.1,30.10,NNE,31,0.0,0.0,90,0.00,,,0.00,Wunderground v.1.15,2013-03-22 12:05:00,
2013-03-22 07:07:00,15.5,13.1,30.10,NNE,31,0.0,0.0,90,0.00,,,0.00,Wunderground v.1.15,2013-03-22 12:07:00,
2013-03-22 07:09:00,15.6,13.2,30.10,NNE,31,0.0,0.0,90,0.00,,,0.00,Wunderground v.1.15,2013-03-22 12:09:00,
2013-03-22 07:12:00,15.7,13.3,30.10,NNE,31,0.0,0.0,90,0.00,,,0.00,Wunderground v.1.15,2013-03-22 12:12:00,
2013-03-22 07:13:00,15.7,13.3,30.10,NNE,31,0.0,0.0,90,0.00,,,0.00,Wunderground v.1.15,2013-03-22 12:13:00,
2013-03-22 07:16:00,15.7,13.3,30.10,NNE,31,0.0,0.0,90,0.00,,,0.00,Wunderground v.1.15,2013-03-22 12:16:00,
2013-03-22 07:18:00,15.7,13.3,30.10,NNE,31,0.0,0.0,90,0.00,,,0.00,Wunderground v.1.15,2013-03-22 12:18:00,
2013-03-22 07:19:00,15.6,12.9,30.10,NNE,31,0.0,0.0,89,0.00,,,0.00,Wunderground v.1.15,2013-03-22 12:19:00,
2013-03-22 07:21:00,15.6,12.9,30.10,NNE,31,0.0,0.0,89,0.00,,,0.00,Wunderground v.1.15,2013-03-22 12:21:00,
2013-03-22 07:23:00,15.5,12.8,30.10,NNE,31,0.0,0.0,89,0.00,,,0.00,Wunderground v.1.15,2013-03-22 12:23:00,
2013-03-22 07:26:00,15.4,12.7,30.10,NNE,31,0.0,0.0,89,0.00,,,0.00,Wunderground v.1.15,2013-03-22 12:26:00,
2013-03-22 07:27:00,15.4,12.7,30.11,NNE,31,0.0,0.0,89,0.00,,,0.00,Wunderground v.1.15,2013-03-22 12:27:00,
2013-03-22 07:28:00,15.4,12.7,30.10,NNE,31,0.0,0.0,89,0.00,,,0.00,Wunderground v.1.15,2013-03-22 12:28:00,
2013-03-22 07:30:00,15.3,12.6,30.10,NNE,31,0.0,0.0,89,0.00,,,0.00,Wunderground v.1.15,2013-03-22 12:30:00,
2013-03-22 07:32:00,15.2,12.5,30.10,NNE,31,0.0,0.0,89,0.00,,,0.00,Wunderground v.1.15,2013-03-22 12:32:00,
2013-03-22 07:34:00,15.2,12.5,30.10,NNE,31,0.0,0.0,89,0.00,,,0.00,Wunderground v.1.15,2013-03-22 12:34:00,
2013-03-22 07:35:00,15.3,12.6,30.10,NNE,31,0.0,0.0,89,0.00,,,0.00,Wunderground v.1.15,2013-03-22 12:35:00,
2013-03-22 07:37:00,15.3,12.6,30.11,NNE,31,0.0,0.0,89,0.00,,,0.00,Wunderground v.1.15,2013-03-22 12:37:00,
2013-03-22 07:38:00,15.3,12.6,30.11,NNE,31,0.0,0.0,89,0.00,,,0.00,Wunderground v.1.15,2013-03-22 12:38:00,
2013-03-22 07:43:00,15.7,13.3,30.10,NNE,31,0.0,0.0,90,0.00,,,0.00,Wunderground v.1.15,2013-03-22 12:43:00,
2013-03-22 07:44:00,15.7,13.3,30.11,NNE,31,0.0,0.0,90,0.00,,,0.00,Wunderground v.1.15,2013-03-22 12:44:00,
2013-03-22 07:46:00,15.9,13.7,30.10,NNE,31,0.0,0.0,91,0.00,,,0.00,Wunderground v.1.15,2013-03-22 12:46:00,
2013-03-22 07:47:00,16.0,13.8,30.10,NNE,31,0.0,0.0,91,0.00,,,0.00,Wunderground v.1.15,2013-03-22 12:47:00,
2013-03-22 07:49:00,16.1,13.7,30.10,NNE,31,0.0,0.0,90,0.00,,,0.00,Wunderground v.1.15,2013-03-22 12:49:00,
2013-03-22 07:50:00,16.3,14.1,30.10,NNE,31,0.0,0.0,91,0.00,,,0.00,Wunderground v.1.15,2013-03-22 12:50:00,
2013-03-22 07:54:00,16.7,14.5,30.10,NNE,31,0.0,1.0,91,0.00,,,0.00,Wunderground v.1.15,2013-03-22 12:54:00,
2013-03-22 07:55:00,16.9,14.7,30.10,NNE,31,0.0,1.0,91,0.00,,,0.00,Wunderground v.1.15,2013-03-22 12:55:00,
2013-03-22 07:59:00,17.4,15.0,30.11,NNE,31,0.0,1.0,90,0.00,,,0.00,Wunderground v.1.15,2013-03-22 12:59:00,
2013-03-22 08:00:00,17.6,15.2,30.11,NNE,31,0.0,0.0,90,0.00,,,0.00,Wunderground v.1.15,2013-03-22 13:00:00,
2013-03-22 08:03:00,17.9,15.5,30.10,NNE,31,0.0,0.0,90,0.00,,,0.00,Wunderground v.1.15,2013-03-22 13:03:00,
2013-03-22 08:07:00,18.5,16.1,30.10,NNE,31,0.0,2.0,90,0.00,,,0.00,Wunderground v.1.15,2013-03-22 13:07:00,
2013-03-22 08:08:00,18.6,15.9,30.10,NNE,31,0.0,2.0,89,0.00,,,0.00,Wunderground v.1.15,2013-03-22 13:08:00,
2013-03-22 08:09:00,18.7,16.0,30.10,NNE,31,0.0,2.0,89,0.00,,,0.00,Wunderground v.1.15,2013-03-22 13:09:00,
2013-03-22 08:14:00,19.5,16.8,30.10,NNE,31,0.0,0.0,89,0.00,,,0.00,Wunderground v.1.15,2013-03-22 13:14:00,
2013-03-22 08:15:00,19.7,17.0,30.11,NNE,31,0.0,0.0,89,0.00,,,0.00,Wunderground v.1.15,2013-03-22 13:15:00,
2013-03-22 08:17:00,19.9,17.2,30.10,NNE,31,0.0,0.0,89,0.00,,,0.00,Wunderground v.1.15,2013-03-22 13:17:00,
2013-03-22 08:20:00,20.6,17.9,30.11,NNE,31,0.0,0.0,89,0.00,,,0.00,Wunderground v.1.15,2013-03-22 13:20:00,
2013-03-22 08:22:00,20.9,18.2,30.11,NNE,31,0.0,0.0,89,0.00,,,0.00,Wunderground v.1.15,2013-03-22 13:22:00,
2013-03-22 08:24:00,21.2,18.2,30.11,NNE,31,0.0,0.0,88,0.00,,,0.00,Wunderground v.1.15,2013-03-22 13:24:00,
2013-03-22 08:25:00,21.4,18.1,30.10,NNE,31,0.0,0.0,87,0.00,,,0.00,Wunderground v.1.15,2013-03-22 13:25:00,
2013-03-22 08:29:00,22.0,18.2,30.10,NNE,31,0.0,0.0,85,0.00,,,0.00,Wunderground v.1.15,2013-03-22 13:29:00,
2013-03-22 08:30:00,22.2,18.1,30.10,NNE,31,0.0,0.0,84,0.00,,,0.00,Wunderground v.1.15,2013-03-22 13:30:00,
2013-03-22 08:35:00,22.8,17.8,30.11,NNE,31,0.0,0.0,81,0.00,,,0.00,Wunderground v.1.15,2013-03-22 13:35:00,
2013-03-22 08:37:00,22.9,17.7,30.11,NNE,31,0.0,0.0,80,0.00,,,0.00,Wunderground v.1.15,2013-03-22 13:37:00,
2013-03-22 08:39:00,23.0,17.5,30.11,NNE,31,0.0,0.0,79,0.00,,,0.00,Wunderground v.1.15,2013-03-22 13:39:00,
2013-03-22 08:40:00,23.1,17.6,30.11,NNE,31,0.0,0.0,79,0.00,,,0.00,Wunderground v.1.15,2013-03-22 13:40:00,
2013-03-22 08:45:00,23.6,17.4,30.11,NNE,31,0.0,0.0,77,0.00,,,0.00,Wunderground v.1.15,2013-03-22 13:45:00,
2013-03-22 08:47:00,23.7,17.5,30.11,NNE,31,0.0,0.0,77,0.00,,,0.00,Wunderground v.1.15,2013-03-22 13:47:00,
2013-03-22 08:49:00,23.8,17.3,30.11,NNE,31,0.0,0.0,76,0.00,,,0.00,Wunderground v.1.15,2013-03-22 13:49:00,
2013-03-22 08:53:00,24.0,16.9,30.11,NNE,31,0.0,1.0,74,0.00,,,0.00,Wunderground v.1.15,2013-03-22 13:53:00,
2013-03-22 08:54:00,24.0,16.9,30.11,NNE,31,0.0,2.0,74,0.00,,,0.00,Wunderground v.1.15,2013-03-22 13:54:00,
2013-03-22 08:58:00,24.1,16.4,30.11,NNE,31,1.0,2.0,72,0.00,,,0.00,Wunderground v.1.15,2013-03-22 13:58:00,
2013-03-22 08:59:00,24.1,16.7,30.11,NNE,31,1.0,2.0,73,0.00,,,0.00,Wunderground v.1.15,2013-03-22 13:59:00,
2013-03-22 09:00:00,24.2,16.8,30.11,NNE,31,1.0,1.0,73,0.00,,,0.00,Wunderground v.1.15,2013-03-22 14:00:00,
2013-03-22 09:04:00,24.5,17.1,30.11,NNE,31,2.0,2.0,73,0.00,,,0.00,Wunderground v.1.15,2013-03-22 14:04:00,
2013-03-22 09:07:00,24.8,17.1,30.11,NNE,31,1.0,2.0,72,0.00,,,0.00,Wunderground v.1.15,2013-03-22 14:07:00,
2013-03-22 09:09:00,24.9,17.1,30.11,NNE,31,1.0,2.0,72,0.00,,,0.00,Wunderground v.1.15,2013-03-22 14:09:00,
2013-03-22 09:10:00,25.1,17.0,30.11,NNE,31,1.0,1.0,71,0.00,,,0.00,Wunderground v.1.15,2013-03-22 14:10:00,
2013-03-22 09:11:00,25.2,16.8,30.11,NNE,31,1.0,1.0,70,0.00,,,0.00,Wunderground v.1.15,2013-03-22 14:11:00,
2013-03-22 09:15:00,25.8,17.0,30.10,NNE,32,1.0,2.0,69,0.00,,,0.00,Wunderground v.1.15,2013-03-22 14:15:00,
2013-03-22 09:18:00,25.9,16.8,30.10,NNE,32,1.0,2.0,68,0.00,,,0.00,Wunderground v.1.15,2013-03-22 14:18:00,
2013-03-22 09:19:00,25.9,17.1,30.11,NNE,32,0.0,2.0,69,0.00,,,0.00,Wunderground v.1.15,2013-03-22 14:19:00,
2013-03-22 09:22:00,26.1,17.0,30.11,NNE,32,1.0,3.0,68,0.00,,,0.00,Wunderground v.1.15,2013-03-22 14:22:00,
2013-03-22 09:26:00,26.3,16.8,30.10,NNE,32,1.0,3.0,67,0.00,,,0.00,Wunderground v.1.15,2013-03-22 14:26:00,
2013-03-22 09:28:00,26.5,17.0,30.11,NNE,32,1.0,3.0,67,0.00,,,0.00,Wunderground v.1.15,2013-03-22 14:28:00,
2013-03-22 09:30:00,26.7,16.9,30.11,NNE,32,1.0,3.0,66,0.00,,,0.00,Wunderground v.1.15,2013-03-22 14:30:00,
2013-03-22 09:33:00,26.9,16.7,30.11,NNE,32,1.0,3.0,65,0.00,,,0.00,Wunderground v.1.15,2013-03-22 14:33:00,
2013-03-22 09:35:00,27.1,17.2,30.10,NNE,32,1.0,3.0,66,0.00,,,0.00,Wunderground v.1.15,2013-03-22 14:35:00,
2013-03-22 09:38:00,27.2,17.0,30.10,NNE,32,1.0,3.0,65,0.00,,,0.00,Wunderground v.1.15,2013-03-22 14:38:00,
2013-03-22 09:40:00,27.5,17.3,30.10,NNE,32,1.0,1.0,65,0.00,,,0.00,Wunderground v.1.15,2013-03-22 14:40:00,
2013-03-22 09:43:00,27.8,16.8,30.10,NNE,32,1.0,2.0,63,0.00,,,0.00,Wunderground v.1.15,2013-03-22 14:43:00,
2013-03-22 09:45:00,28.0,17.0,30.10,NNE,32,1.0,2.0,63,0.00,,,0.00,Wunderground v.1.15,2013-03-22 14:45:00,
2013-03-22 09:47:00,28.1,16.7,30.11,NNE,32,1.0,2.0,62,0.00,,,0.00,Wunderground v.1.15,2013-03-22 14:47:00,
2013-03-22 09:53:00,28.0,15.1,30.11,NNE,32,2.0,2.0,58,0.00,,,0.00,Wunderground v.1.15,2013-03-22 14:53:00,
2013-03-22 09:54:00,28.0,15.5,30.11,NNE,32,2.0,2.0,59,0.00,,,0.00,Wunderground v.1.15,2013-03-22 14:54:00,
2013-03-22 09:56:00,28.0,15.9,30.11,NNE,32,2.0,2.0,60,0.00,,,0.00,Wunderground v.1.15,2013-03-22 14:56:00,
2013-03-22 09:58:00,28.0,15.1,30.10,NNE,32,2.0,2.0,58,0.00,,,0.00,Wunderground v.1.15,2013-03-22 14:58:00,
2013-03-22 10:01:00,28.0,15.1,30.11,NNE,32,2.0,2.0,58,0.00,,,0.00,Wunderground v.1.15,2013-03-22 15:01:00,
2013-03-22 10:05:00,28.1,15.6,30.10,SE,137,2.0,3.0,59,0.00,,,0.00,Wunderground v.1.15,2013-03-22 15:05:00,
2013-03-22 10:07:00,28.3,15.0,30.11,SE,141,2.0,4.0,57,0.00,,,0.00,Wunderground v.1.15,2013-03-22 15:07:00,
2013-03-22 10:08:00,28.3,15.4,30.11,SSE,167,2.0,4.0,58,0.00,,,0.00,Wunderground v.1.15,2013-03-22 15:08:00,
2013-03-22 10:10:00,28.5,15.6,30.11,South,172,3.0,3.0,58,0.00,,,0.00,Wunderground v.1.15,2013-03-22 15:10:00,
2013-03-22 10:12:00,28.7,15.8,30.11,South,173,3.0,3.0,58,0.00,,,0.00,Wunderground v.1.15,2013-03-22 15:12:00,
2013-03-22 10:14:00,28.8,16.3,30.11,South,173,3.0,5.0,59,0.00,,,0.00,Wunderground v.1.15,2013-03-22 15:14:00,
2013-03-22 10:17:00,28.9,15.6,30.11,South,174,3.0,5.0,57,0.00,,,0.00,Wunderground v.1.15,2013-03-22 15:17:00,
2013-03-22 10:18:00,29.0,16.4,30.11,South,174,3.0,5.0,59,0.00,,,0.00,Wunderground v.1.15,2013-03-22 15:18:00,
2013-03-22 10:22:00,29.2,17.0,30.11,South,182,2.0,5.0,60,0.00,,,0.00,Wunderground v.1.15,2013-03-22 15:22:00,
2013-03-22 10:23:00,29.2,16.6,30.11,South,183,2.0,5.0,59,0.00,,,0.00,Wunderground v.1.15,2013-03-22 15:23:00,
2013-03-22 10:27:00,29.3,16.7,30.11,South,183,2.0,5.0,59,0.00,,,0.00,Wunderground v.1.15,2013-03-22 15:27:00,
2013-03-22 10:29:00,29.4,16.4,30.11,South,184,2.0,5.0,58,0.00,,,0.00,Wunderground v.1.15,2013-03-22 15:29:00,
2013-03-22 10:33:00,29.5,16.5,30.11,South,184,2.0,4.0,58,0.00,,,0.00,Wunderground v.1.15,2013-03-22 15:33:00,
2013-03-22 10:34:00,29.5,15.7,30.11,SSW,192,2.0,4.0,56,0.00,,,0.00,Wunderground v.1.15,2013-03-22 15:34:00,
2013-03-22 10:35:00,29.5,15.3,30.11,WSW,244,2.0,4.0,55,0.00,,,0.00,Wunderground v.1.15,2013-03-22 15:35:00,
2013-03-22 10:37:00,29.6,15.8,30.11,WSW,250,2.0,4.0,56,0.00,,,0.00,Wunderground v.1.15,2013-03-22 15:37:00,
2013-03-22 10:41:00,29.6,16.2,30.11,WNW,283,3.0,3.0,57,0.00,,,0.00,Wunderground v.1.15,2013-03-22 15:41:00,
2013-03-22 10:42:00,29.6,16.2,30.11,WNW,284,3.0,3.0,57,0.00,,,0.00,Wunderground v.1.15,2013-03-22 15:42:00,
2013-03-22 10:43:00,29.6,16.2,30.11,WNW,284,3.0,4.0,57,0.00,,,0.00,Wunderground v.1.15,2013-03-22 15:43:00,
2013-03-22 10:44:00,29.6,16.2,30.11,WNW,290,3.0,4.0,57,0.00,,,0.00,Wunderground v.1.15,2013-03-22 15:44:00,
2013-03-22 10:46:00,29.6,16.6,30.11,WNW,287,2.0,4.0,58,0.00,,,0.00,Wunderground v.1.15,2013-03-22 15:46:00,
2013-03-22 10:48:00,29.7,17.1,30.11,WNW,289,2.0,5.0,59,0.00,,,0.00,Wunderground v.1.15,2013-03-22 15:48:00,
2013-03-22 10:49:00,29.7,16.7,30.11,WNW,290,2.0,5.0,58,0.00,,,0.00,Wunderground v.1.15,2013-03-22 15:49:00,
2013-03-22 10:50:00,29.7,16.7,30.11,WNW,290,2.0,2.0,58,0.00,,,0.00,Wunderground v.1.15,2013-03-22 15:50:00,
2013-03-22 10:55:00,29.9,16.9,30.11,SW,229,2.0,3.0,58,0.00,,,0.00,Wunderground v.1.15,2013-03-22 15:55:00,
2013-03-22 10:57:00,29.9,16.5,30.11,SW,228,2.0,3.0,57,0.00,,,0.00,Wunderground v.1.15,2013-03-22 15:57:00,
2013-03-22 11:00:00,30.1,17.1,30.11,SW,228,2.0,2.0,58,0.00,,,0.00,Wunderground v.1.15,2013-03-22 16:00:00,
2013-03-22 11:01:00,30.1,17.1,30.11,SW,228,2.0,3.0,58,0.00,,,0.00,Wunderground v.1.15,2013-03-22 16:01:00,
2013-03-22 11:04:00,30.4,17.8,30.11,WSW,243,2.0,5.0,59,0.00,,,0.00,Wunderground v.1.15,2013-03-22 16:04:00,
2013-03-22 11:05:00,30.6,16.7,30.11,WSW,250,2.0,5.0,56,0.00,,,0.00,Wunderground v.1.15,2013-03-22 16:05:00,
2013-03-22 11:06:00,30.6,16.7,30.11,WSW,250,2.0,5.0,56,0.00,,,0.00,Wunderground v.1.15,2013-03-22 16:06:00,
2013-03-22 11:10:00,30.8,16.5,30.11,SW,227,4.0,4.0,55,0.00,,,0.00,Wunderground v.1.15,2013-03-22 16:10:00,
2013-03-22 11:12:00,30.8,16.9,30.11,SW,227,4.0,4.0,56,0.00,,,0.00,Wunderground v.1.15,2013-03-22 16:12:00,
2013-03-22 11:13:00,31.0,17.5,30.11,SW,236,3.0,4.0,57,0.00,,,0.00,Wunderground v.1.15,2013-03-22 16:13:00,
2013-03-22 11:17:00,31.0,17.1,30.11,SW,236,3.0,4.0,56,0.00,,,0.00,Wunderground v.1.15,2013-03-22 16:17:00,
2013-03-22 11:18:00,31.0,17.1,30.11,SW,236,3.0,4.0,56,0.00,,,0.00,Wunderground v.1.15,2013-03-22 16:18:00,
2013-03-22 11:19:00,31.1,18.0,30.11,SW,236,3.0,4.0,58,0.00,,,0.00,Wunderground v.1.15,2013-03-22 16:19:00,
2013-03-22 11:21:00,31.3,19.0,30.10,WSW,240,2.0,2.0,60,0.00,,,0.00,Wunderground v.1.15,2013-03-22 16:21:00,
2013-03-22 11:25:00,31.5,18.0,30.10,NW,318,3.0,5.0,57,0.00,,,0.00,Wunderground v.1.15,2013-03-22 16:25:00,
2013-03-22 11:26:00,31.5,18.0,30.10,NW,318,3.0,5.0,57,0.00,,,0.00,Wunderground v.1.15,2013-03-22 16:26:00,
2013-03-22 11:27:00,31.5,18.0,30.10,NW,321,3.0,5.0,57,0.00,,,0.00,Wunderground v.1.15,2013-03-22 16:27:00,
2013-03-22 11:30:00,31.4,17.1,30.10,NW,321,3.0,3.0,55,0.00,,,0.00,Wunderground v.1.15,2013-03-22 16:30:00,
2013-03-22 11:32:00,31.4,17.9,30.10,NW,321,3.0,3.0,57,0.00,,,0.00,Wunderground v.1.15,2013-03-22 16:32:00,
2013-03-22 11:33:00,31.5,18.0,30.10,NW,321,2.0,3.0,57,0.00,,,0.00,Wunderground v.1.15,2013-03-22 16:33:00,
2013-03-22 11:35:00,31.6,18.1,30.10,NNW,333,2.0,4.0,57,0.00,,,0.00,Wunderground v.1.15,2013-03-22 16:35:00,
2013-03-22 11:37:00,31.6,17.7,30.11,NNW,334,2.0,4.0,56,0.00,,,0.00,Wunderground v.1.15,2013-03-22 16:37:00,
2013-03-22 11:40:00,31.6,17.3,30.11,West,269,3.0,3.0,55,0.00,,,0.00,Wunderground v.1.15,2013-03-22 16:40:00,
2013-03-22 11:42:00,31.5,16.7,30.11,WNW,288,3.0,3.0,54,0.00,,,0.00,Wunderground v.1.15,2013-03-22 16:42:00,
2013-03-22 11:44:00,31.5,17.6,30.10,WNW,294,3.0,3.0,56,0.00,,,0.00,Wunderground v.1.15,2013-03-22 16:44:00,
2013-03-22 11:47:00,31.2,16.9,30.11,NNW,338,3.0,6.0,55,0.00,,,0.00,Wunderground v.1.15,2013-03-22 16:47:00,
2013-03-22 11:48:00,31.2,16.9,30.11,NNW,338,3.0,6.0,55,0.00,,,0.00,Wunderground v.1.15,2013-03-22 16:48:00,
2013-03-22 11:50:00,31.1,17.2,30.11,NNW,338,3.0,3.0,56,0.00,,,0.00,Wunderground v.1.15,2013-03-22 16:50:00,
2013-03-22 11:51:00,31.1,16.8,30.11,NNW,338,3.0,3.0,55,0.00,,,0.00,Wunderground v.1.15,2013-03-22 16:51:00,
2013-03-22 11:54:00,31.0,17.1,30.11,NNW,338,3.0,3.0,56,0.00,,,0.00,Wunderground v.1.15,2013-03-22 16:54:00,
2013-03-22 11:57:00,31.2,17.7,30.10,NW,315,3.0,7.0,57,0.00,,,0.00,Wunderground v.1.15,2013-03-22 16:57:00,
2013-03-22 12:00:00,31.3,16.6,30.10,WNW,283,3.0,3.0,54,0.00,,,0.00,Wunderground v.1.15,2013-03-22 17:00:00,
2013-03-22 12:02:00,31.3,16.6,30.10,West,281,3.0,3.0,54,0.00,,,0.00,Wunderground v.1.15,2013-03-22 17:02:00,
2013-03-22 12:05:00,31.5,17.6,30.11,West,281,3.0,4.0,56,0.00,,,0.00,Wunderground v.1.15,2013-03-22 17:05:00,
2013-03-22 12:09:00,31.7,17.8,30.10,West,279,3.0,4.0,56,0.00,,,0.00,Wunderground v.1.15,2013-03-22 17:09:00,
2013-03-22 12:12:00,31.8,17.9,30.10,SW,229,2.0,5.0,56,0.00,,,0.00,Wunderground v.1.15,2013-03-22 17:12:00,
2013-03-22 12:13:00,31.9,18.0,30.10,SW,229,2.0,5.0,56,0.00,,,0.00,Wunderground v.1.15,2013-03-22 17:13:00,
2013-03-22 12:15:00,32.0,18.5,30.10,SW,229,2.0,5.0,57,0.00,,,0.00,Wunderground v.1.15,2013-03-22 17:15:00,
2013-03-22 12:17:00,32.0,18.1,30.10,SW,230,3.0,5.0,56,0.00,,,0.00,Wunderground v.1.15,2013-03-22 17:17:00,
2013-03-22 12:21:00,32.1,19.0,30.10,WSW,246,2.0,4.0,58,0.00,,,0.00,Wunderground v.1.15,2013-03-22 17:21:00,
2013-03-22 12:22:00,32.2,19.1,30.10,SW,233,2.0,5.0,58,0.00,,,0.00,Wunderground v.1.15,2013-03-22 17:22:00,
2013-03-22 12:25:00,32.5,18.5,30.10,WSW,253,3.0,5.0,56,0.00,,,0.00,Wunderground v.1.15,2013-03-22 17:25:00,
2013-03-22 12:27:00,32.6,18.2,30.10,WSW,247,3.0,5.0,55,0.00,,,0.00,Wunderground v.1.15,2013-03-22 17:27:00,
2013-03-22 12:29:00,32.6,18.2,30.10,WSW,254,4.0,5.0,55,0.00,,,0.00,Wunderground v.1.15,2013-03-22 17:29:00,
2013-03-22 12:30:00,32.6,17.8,30.10,WSW,254,4.0,5.0,54,0.00,,,0.00,Wunderground v.1.15,2013-03-22 17:30:00,
2013-03-22 12:35:00,32.6,18.2,30.10,WSW,252,3.0,5.0,55,0.00,,,0.00,Wunderground v.1.15,2013-03-22 17:35:00,
2013-03-22 12:36:00,32.6,18.2,30.09,WSW,252,3.0,5.0,55,0.00,,,0.00,Wunderground v.1.15,2013-03-22 17:36:00,
2013-03-22 12:37:00,32.6,18.2,30.10,WSW,250,3.0,5.0,55,0.00,,,0.00,Wunderground v.1.15,2013-03-22 17:37:00,
2013-03-22 12:38:00,32.6,18.2,30.09,WSW,256,3.0,5.0,55,0.00,,,0.00,Wunderground v.1.15,2013-03-22 17:38:00,
2013-03-22 12:40:00,32.7,18.7,30.09,West,271,3.0,6.0,56,0.00,,,0.00,Wunderground v.1.15,2013-03-22 17:40:00,
2013-03-22 12:43:00,32.7,18.3,30.09,West,269,3.0,4.0,55,0.00,,,0.00,Wunderground v.1.15,2013-03-22 17:43:00,
2013-03-22 12:47:00,32.7,17.0,30.09,West,268,3.0,4.0,52,0.00,,,0.00,Wunderground v.1.15,2013-03-22 17:47:00,
2013-03-22 12:50:00,32.8,18.8,30.09,WNW,288,3.0,4.0,56,0.00,,,0.00,Wunderground v.1.15,2013-03-22 17:50:00,
2013-03-22 12:52:00,32.8,18.4,30.09,NNW,338,2.0,4.0,55,0.00,,,0.00,Wunderground v.1.15,2013-03-22 17:52:00,
2013-03-22 12:53:00,32.8,19.2,30.09,WSW,248,2.0,5.0,57,0.00,,,0.00,Wunderground v.1.15,2013-03-22 17:53:00,
2013-03-22 12:55:00,33.0,19.4,30.09,West,268,3.0,5.0,57,0.00,,,0.00,Wunderground v.1.15,2013-03-22 17:55:00,
2013-03-22 12:57:00,33.0,18.6,30.09,West,268,2.0,5.0,55,0.00,,,0.00,Wunderground v.1.15,2013-03-22 17:57:00,
2013-03-22 12:59:00,33.1,19.9,30.09,West,268,2.0,5.0,58,0.00,,,0.00,Wunderground v.1.15,2013-03-22 17:59:00,
2013-03-22 13:00:00,33.2,19.6,30.09,NW,315,2.0,2.0,57,0.00,,,0.00,Wunderground v.1.15,2013-03-22 18:00:00,
2013-03-22 13:03:00,33.3,18.9,30.09,NW,314,2.0,4.0,55,0.00,,,0.00,Wunderground v.1.15,2013-03-22 18:03:00,
2013-03-22 13:04:00,33.3,18.4,30.09,NW,314,2.0,4.0,54,0.00,,,0.00,Wunderground v.1.15,2013-03-22 18:04:00,
2013-03-22 13:08:00,33.4,19.8,30.09,NW,311,2.0,4.0,57,0.00,,,0.00,Wunderground v.1.15,2013-03-22 18:08:00,
2013-03-22 13:09:00,33.5,19.5,30.09,NW,308,2.0,4.0,56,0.00,,,0.00,Wunderground v.1.15,2013-03-22 18:09:00,
2013-03-22 13:13:00,33.5,18.6,30.09,NW,320,3.0,5.0,54,0.00,,,0.00,Wunderground v.1.15,2013-03-22 18:13:00,
2013-03-22 13:14:00,33.6,19.6,30.09,NW,321,3.0,5.0,56,0.00,,,0.00,Wunderground v.1.15,2013-03-22 18:14:00,
2013-03-22 13:20:00,33.5,19.0,30.08,NNW,333,3.0,4.0,55,0.00,,,0.00,Wunderground v.1.15,2013-03-22 18:20:00,
2013-03-22 13:22:00,33.4,17.6,30.08,NNW,333,3.0,4.0,52,0.00,,,0.00,Wunderground v.1.15,2013-03-22 18:22:00,
2013-03-22 13:23:00,33.4,18.1,30.08,NNW,333,3.0,4.0,53,0.00,,,0.00,Wunderground v.1.15,2013-03-22 18:23:00,
2013-03-22 13:25:00,33.3,18.0,30.08,NNW,334,2.0,4.0,53,0.00,,,0.00,Wunderground v.1.15,2013-03-22 18:25:00,
2013-03-22 13:27:00,33.3,18.4,30.08,NNW,335,2.0,4.0,54,0.00,,,0.00,Wunderground v.1.15,2013-03-22 18:27:00,
2013-03-22 13:29:00,33.3,18.0,30.08,NNW,335,2.0,4.0,53,0.00,,,0.00,Wunderground v.1.15,2013-03-22 18:29:00,
2013-03-22 13:32:00,33.4,20.2,30.08,NNW,335,2.0,4.0,58,0.00,,,0.00,Wunderground v.1.15,2013-03-22 18:32:00,
2013-03-22 14:48:00,35.9,20.9,30.05,WSW,253,2.0,5.0,54,0.00,,,0.00,Wunderground v.1.15,2013-03-22 19:48:00,
2013-03-22 14:49:00,36.0,20.9,30.05,West,262,2.0,5.0,54,0.00,,,0.00,Wunderground v.1.15,2013-03-22 19:49:00,
2013-03-22 14:53:00,36.0,20.1,30.05,NNE,24,3.0,4.0,52,0.00,,,0.00,Wunderground v.1.15,2013-03-22 19:53:00,
2013-03-22 14:54:00,36.0,20.5,30.05,NNE,24,3.0,4.0,53,0.00,,,0.00,Wunderground v.1.15,2013-03-22 19:54:00,
2013-03-22 14:58:00,36.1,20.6,30.05,NNE,30,3.0,5.0,53,0.00,,,0.00,Wunderground v.1.15,2013-03-22 19:58:00,
2013-03-22 14:59:00,36.1,21.0,30.05,North,9,3.0,5.0,54,0.00,,,0.00,Wunderground v.1.15,2013-03-22 19:59:00,
2013-03-22 15:02:00,35.9,20.4,30.05,NNW,328,3.0,4.0,53,0.00,,,0.00,Wunderground v.1.15,2013-03-22 20:02:00,
2013-03-22 15:05:00,35.9,20.4,30.05,NNW,329,3.0,4.0,53,0.00,,,0.00,Wunderground v.1.15,2013-03-22 20:05:00,
2013-03-22 15:07:00,35.9,20.0,30.05,NNW,327,2.0,4.0,52,0.00,,,0.00,Wunderground v.1.15,2013-03-22 20:07:00,
2013-03-22 15:09:00,35.9,20.0,30.05,West,279,2.0,4.0,52,0.00,,,0.00,Wunderground v.1.15,2013-03-22 20:09:00,
2013-03-22 15:12:00,35.9,19.5,30.05,West,277,2.0,3.0,51,0.00,,,0.00,Wunderground v.1.15,2013-03-22 20:12:00,
2013-03-22 15:13:00,36.0,20.5,30.05,WNW,287,2.0,5.0,53,0.00,,,0.00,Wunderground v.1.15,2013-03-22 20:13:00,
2013-03-22 15:14:00,36.0,20.1,30.05,NW,317,3.0,5.0,52,0.00,,,0.00,Wunderground v.1.15,2013-03-22 20:14:00,
2013-03-22 15:19:00,35.7,19.3,30.05,NNW,343,3.0,5.0,51,0.00,,,0.00,Wunderground v.1.15,2013-03-22 20:19:00,
2013-03-22 15:22:00,35.5,19.6,30.05,NNW,343,3.0,3.0,52,0.00,,,0.00,Wunderground v.1.15,2013-03-22 20:22:00,
2013-03-22 15:23:00,35.5,19.6,30.05,NNW,342,3.0,3.0,52,0.00,,,0.00,Wunderground v.1.15,2013-03-22 20:23:00,
2013-03-22 15:25:00,35.5,19.1,30.05,NNW,343,2.0,3.0,51,0.00,,,0.00,Wunderground v.1.15,2013-03-22 20:25:00,
2013-03-22 15:29:00,35.6,20.1,30.05,NNW,345,1.0,3.0,53,0.00,,,0.00,Wunderground v.1.15,2013-03-22 20:29:00,
2013-03-22 15:32:00,35.9,20.4,30.05,SW,223,1.0,4.0,53,0.00,,,0.00,Wunderground v.1.15,2013-03-22 20:32:00,
2013-03-22 15:33:00,36.0,20.5,30.05,SW,223,2.0,4.0,53,0.00,,,0.00,Wunderground v.1.15,2013-03-22 20:33:00,
2013-03-22 15:36:00,36.4,20.0,30.06,SW,219,3.0,6.0,51,0.00,,,0.00,Wunderground v.1.15,2013-03-22 20:36:00,
2013-03-22 15:37:00,36.5,20.1,30.06,SW,216,3.0,6.0,51,0.00,,,0.00,Wunderground v.1.15,2013-03-22 20:37:00,
2013-03-22 15:38:00,36.6,20.6,30.06,SW,220,4.0,6.0,52,0.00,,,0.00,Wunderground v.1.15,2013-03-22 20:38:00,
2013-03-22 15:43:00,36.7,21.2,30.06,NW,316,4.0,4.0,53,0.00,,,0.00,Wunderground v.1.15,2013-03-22 20:43:00,
2013-03-22 15:46:00,36.6,21.1,30.06,North,360,3.0,6.0,53,0.00,,,0.00,Wunderground v.1.15,2013-03-22 20:46:00,
2013-03-22 15:48:00,36.5,21.0,30.06,NNW,341,3.0,6.0,53,0.00,,,0.00,Wunderground v.1.15,2013-03-22 20:48:00,
2013-03-22 15:49:00,36.5,20.1,30.06,NNW,341,3.0,6.0,51,0.00,,,0.00,Wunderground v.1.15,2013-03-22 20:49:00,
2013-03-22 15:51:00,36.4,20.9,30.05,NNW,342,3.0,3.0,53,0.00,,,0.00,Wunderground v.1.15,2013-03-22 20:51:00,
2013-03-22 15:54:00,36.4,19.0,30.05,NNW,342,2.0,3.0,49,0.00,,,0.00,Wunderground v.1.15,2013-03-22 20:54:00,
2013-03-22 15:55:00,36.5,20.1,30.05,North,5,2.0,4.0,51,0.00,,,0.00,Wunderground v.1.15,2013-03-22 20:55:00,
2013-03-22 15:56:00,36.5,21.0,30.05,North,5,2.0,4.0,53,0.00,,,0.00,Wunderground v.1.15,2013-03-22 20:56:00,
2013-03-22 15:58:00,36.7,21.2,30.06,West,273,1.0,6.0,53,0.00,,,0.00,Wunderground v.1.15,2013-03-22 20:58:00,
2013-03-22 16:02:00,36.9,21.8,30.06,West,278,2.0,4.0,54,0.00,,,0.00,Wunderground v.1.15,2013-03-22 21:02:00,
2013-03-22 16:03:00,36.9,20.9,30.06,West,279,2.0,4.0,52,0.00,,,0.00,Wunderground v.1.15,2013-03-22 21:03:00,
2013-03-22 16:07:00,36.8,20.8,30.06,WNW,290,2.0,4.0,52,0.00,,,0.00,Wunderground v.1.15,2013-03-22 21:07:00,
2013-03-22 16:08:00,36.8,21.3,30.06,WNW,290,3.0,4.0,53,0.00,,,0.00,Wunderground v.1.15,2013-03-22 21:08:00,
2013-03-22 16:10:00,36.8,20.3,30.06,WNW,290,2.0,2.0,51,0.00,,,0.00,Wunderground v.1.15,2013-03-22 21:10:00,
2013-03-22 16:13:00,36.8,20.8,30.06,NNE,24,2.0,4.0,52,0.00,,,0.00,Wunderground v.1.15,2013-03-22 21:13:00,
2013-03-22 16:14:00,36.8,20.8,30.06,NNE,25,2.0,4.0,52,0.00,,,0.00,Wunderground v.1.15,2013-03-22 21:14:00,
2013-03-22 16:15:00,36.8,21.3,30.06,NE,36,2.0,4.0,53,0.00,,,0.00,Wunderground v.1.15,2013-03-22 21:15:00,
2013-03-22 16:16:00,36.8,21.3,30.06,NE,43,2.0,4.0,53,0.00,,,0.00,Wunderground v.1.15,2013-03-22 21:16:00,
2013-03-22 16:18:00,36.8,22.1,30.06,NE,45,3.0,4.0,55,0.00,,,0.00,Wunderground v.1.15,2013-03-22 21:18:00,
2013-03-22 16:20:00,36.8,22.1,30.06,NE,44,3.0,3.0,55,0.00,,,0.00,Wunderground v.1.15,2013-03-22 21:20:00,
2013-03-22 16:22:00,36.8,21.7,30.07,East,81,3.0,4.0,54,0.00,,,0.00,Wunderground v.1.15,2013-03-22 21:22:00,
2013-03-22 16:23:00,36.7,21.6,30.07,ENE,67,3.0,5.0,54,0.00,,,0.00,Wunderground v.1.15,2013-03-22 21:23:00,
2013-03-22 16:27:00,36.5,22.3,30.06,NNW,344,3.0,5.0,56,0.00,,,0.00,Wunderground v.1.15,2013-03-22 21:27:00,
2013-03-22 16:28:00,36.5,21.8,30.07,NNW,344,3.0,5.0,55,0.00,,,0.00,Wunderground v.1.15,2013-03-22 21:28:00,
2013-03-22 16:31:00,36.5,21.8,30.07,West,279,4.0,4.0,55,0.00,,,0.00,Wunderground v.1.15,2013-03-22 21:31:00,
2013-03-22 16:32:00,36.5,21.4,30.06,WNW,291,4.0,4.0,54,0.00,,,0.00,Wunderground v.1.15,2013-03-22 21:32:00,
2013-03-22 16:36:00,36.4,21.3,30.07,NW,306,3.0,4.0,54,0.00,,,0.00,Wunderground v.1.15,2013-03-22 21:36:00,
2013-03-22 16:37:00,36.4,21.3,30.07,NW,306,3.0,4.0,54,0.00,,,0.00,Wunderground v.1.15,2013-03-22 21:37:00,
2013-03-22 16:38:00,36.3,21.7,30.07,NW,315,3.0,4.0,55,0.00,,,0.00,Wunderground v.1.15,2013-03-22 21:38:00,
2013-03-22 16:41:00,36.3,22.1,30.06,NNW,346,3.0,5.0,56,0.00,,,0.00,Wunderground v.1.15,2013-03-22 21:41:00,
2013-03-22 16:43:00,36.4,23.0,30.07,NNW,341,3.0,5.0,58,0.00,,,0.00,Wunderground v.1.15,2013-03-22 21:43:00,
2013-03-22 16:45:00,36.3,22.5,30.07,NNW,346,3.0,5.0,57,0.00,,,0.00,Wunderground v.1.15,2013-03-22 21:45:00,
2013-03-22 16:46:00,36.4,23.0,30.07,NNW,346,3.0,6.0,58,0.00,,,0.00,Wunderground v.1.15,2013-03-22 21:46:00,
2013-03-22 16:49:00,36.2,22.8,30.06,NNE,14,4.0,6.0,58,0.00,,,0.00,Wunderground v.1.15,2013-03-22 21:49:00,
2013-03-22 16:52:00,36.3,23.7,30.06,North,355,4.0,5.0,60,0.00,,,0.00,Wunderground v.1.15,2013-03-22 21:52:00,
2013-03-22 16:54:00,36.2,22.8,30.07,North,360,4.0,5.0,58,0.00,,,0.00,Wunderground v.1.15,2013-03-22 21:54:00,
2013-03-22 16:55:00,36.1,22.7,30.07,NE,39,4.0,5.0,58,0.00,,,0.00,Wunderground v.1.15,2013-03-22 21:55:00,
2013-03-22 16:57:00,36.1,22.7,30.07,NNE,14,5.0,5.0,58,0.00,,,0.00,Wunderground v.1.15,2013-03-22 21:57:00,
2013-03-22 16:58:00,36.0,23.0,30.07,NNE,13,4.0,5.0,59,0.00,,,0.00,Wunderground v.1.15,2013-03-22 21:58:00,
2013-03-22 17:01:00,35.9,22.5,30.06,NNE,33,4.0,4.0,58,0.00,,,0.00,Wunderground v.1.15,2013-03-22 22:01:00,
2013-03-22 17:04:00,35.9,22.5,30.06,NE,51,4.0,4.0,58,0.00,,,0.00,Wunderground v.1.15,2013-03-22 22:04:00,
2013-03-22 17:06:00,35.9,23.0,30.06,NE,38,4.0,5.0,59,0.00,,,0.00,Wunderground v.1.15,2013-03-22 22:06:00,
2013-03-22 17:09:00,35.8,22.5,30.06,NE,48,4.0,5.0,58,0.00,,,0.00,Wunderground v.1.15,2013-03-22 22:09:00,
2013-03-22 17:10:00,35.8,22.9,30.06,North,360,4.0,4.0,59,0.00,,,0.00,Wunderground v.1.15,2013-03-22 22:10:00,
2013-03-22 17:13:00,35.9,23.0,30.06,North,360,4.0,4.0,59,0.00,,,0.00,Wunderground v.1.15,2013-03-22 22:13:00,
2013-03-22 17:15:00,35.9,23.4,30.06,NE,47,4.0,4.0,60,0.00,,,0.00,Wunderground v.1.15,2013-03-22 22:15:00,
2013-03-22 17:18:00,36.1,23.1,30.07,NNE,23,3.0,6.0,59,0.00,,,0.00,Wunderground v.1.15,2013-03-22 22:18:00,
2013-03-22 17:20:00,36.1,23.1,30.07,NE,38,3.0,3.0,59,0.00,,,0.00,Wunderground v.1.15,2013-03-22 22:20:00,
2013-03-22 17:22:00,36.1,23.5,30.07,NNE,28,3.0,4.0,60,0.00,,,0.00,Wunderground v.1.15,2013-03-22 22:22:00,
2013-03-22 17:25:00,36.1,23.5,30.07,NNE,32,4.0,5.0,60,0.00,,,0.00,Wunderground v.1.15,2013-03-22 22:25:00,
2013-03-22 17:26:00,36.1,23.5,30.06,NNE,25,4.0,5.0,60,0.00,,,0.00,Wunderground v.1.15,2013-03-22 22:26:00,
2013-03-22 17:27:00,36.1,23.5,30.06,North,9,4.0,5.0,60,0.00,,,0.00,Wunderground v.1.15,2013-03-22 22:27:00,
2013-03-22 17:29:00,36.0,23.0,30.06,NE,48,4.0,6.0,59,0.00,,,0.00,Wunderground v.1.15,2013-03-22 22:29:00,
2013-03-22 17:34:00,35.8,22.9,30.06,NE,46,4.0,5.0,59,0.00,,,0.00,Wunderground v.1.15,2013-03-22 22:34:00,
2013-03-22 17:35:00,35.8,22.5,30.06,NE,44,4.0,5.0,58,0.00,,,0.00,Wunderground v.1.15,2013-03-22 22:35:00,
2013-03-22 17:37:00,35.7,22.8,30.07,North,360,3.0,6.0,59,0.00,,,0.00,Wunderground v.1.15,2013-03-22 22:37:00,
2013-03-22 17:38:00,35.7,22.8,30.07,North,350,4.0,6.0,59,0.00,,,0.00,Wunderground v.1.15,2013-03-22 22:38:00,
2013-03-22 17:43:00,35.5,22.6,30.07,NNW,347,4.0,5.0,59,0.00,,,0.00,Wunderground v.1.15,2013-03-22 22:43:00,
2013-03-22 17:44:00,35.5,23.0,30.07,North,350,3.0,5.0,60,0.00,,,0.00,Wunderground v.1.15,2013-03-22 22:44:00,
2013-03-22 17:45:00,35.5,23.0,30.07,North,350,3.0,5.0,60,0.00,,,0.00,Wunderground v.1.15,2013-03-22 22:45:00,
2013-03-22 17:49:00,35.3,22.4,30.07,North,5,3.0,6.0,59,0.00,,,0.00,Wunderground v.1.15,2013-03-22 22:49:00,
2013-03-22 17:51:00,35.3,22.4,30.07,North,9,3.0,3.0,59,0.00,,,0.00,Wunderground v.1.15,2013-03-22 22:51:00,
2013-03-22 17:54:00,35.2,22.7,30.07,NNE,15,3.0,3.0,60,0.00,,,0.00,Wunderground v.1.15,2013-03-22 22:54:00,
2013-03-22 17:57:00,35.2,22.3,30.06,North,350,3.0,5.0,59,0.00,,,0.00,Wunderground v.1.15,2013-03-22 22:57:00,
2013-03-22 18:01:00,35.1,22.6,30.06,North,350,3.0,4.0,60,0.00,,,0.00,Wunderground v.1.15,2013-03-22 23:01:00,
2013-03-22 18:03:00,35.1,22.6,30.07,North,350,3.0,4.0,60,0.00,,,0.00,Wunderground v.1.15,2013-03-22 23:03:00,
2013-03-22 18:04:00,35.0,22.5,30.07,North,355,3.0,4.0,60,0.00,,,0.00,Wunderground v.1.15,2013-03-22 23:04:00,
2013-03-22 18:07:00,34.8,22.3,30.07,NNW,347,4.0,5.0,60,0.00,,,0.00,Wunderground v.1.15,2013-03-22 23:07:00,
2013-03-22 18:08:00,34.7,22.2,30.06,NNW,348,4.0,5.0,60,0.00,,,0.00,Wunderground v.1.15,2013-03-22 23:08:00,
2013-03-22 18:09:00,34.7,22.2,30.07,NNW,348,4.0,5.0,60,0.00,,,0.00,Wunderground v.1.15,2013-03-22 23:09:00,
2013-03-22 18:15:00,34.2,21.7,30.07,NNE,26,3.0,5.0,60,0.00,,,0.00,Wunderground v.1.15,2013-03-22 23:15:00,
2013-03-22 18:17:00,34.1,22.0,30.07,NE,34,3.0,5.0,61,0.00,,,0.00,Wunderground v.1.15,2013-03-22 23:17:00,
2013-03-22 18:19:00,33.9,21.9,30.07,NE,35,3.0,5.0,61,0.00,,,0.00,Wunderground v.1.15,2013-03-22 23:19:00,
2013-03-22 18:23:00,33.7,22.1,30.07,NE,42,2.0,3.0,62,0.00,,,0.00,Wunderground v.1.15,2013-03-22 23:23:00,
2013-03-22 18:24:00,33.7,22.1,30.06,NE,42,2.0,3.0,62,0.00,,,0.00,Wunderground v.1.15,2013-03-22 23:24:00,
2013-03-22 18:28:00,33.4,21.8,30.06,NNE,33,2.0,4.0,62,0.00,,,0.00,Wunderground v.1.15,2013-03-22 23:28:00,
2013-03-22 18:29:00,33.4,21.8,30.06,NNE,33,2.0,4.0,62,0.00,,,0.00,Wunderground v.1.15,2013-03-22 23:29:00,
2013-03-22 18:30:00,33.3,21.7,30.06,NNE,32,2.0,3.0,62,0.00,,,0.00,Wunderground v.1.15,2013-03-22 23:30:00,
2013-03-22 18:32:00,33.2,22.0,30.06,NNE,32,3.0,3.0,63,0.00,,,0.00,Wunderground v.1.15,2013-03-22 23:32:00,
2013-03-22 18:35:00,33.0,21.8,30.06,NNE,32,2.0,3.0,63,0.00,,,0.00,Wunderground v.1.15,2013-03-22 23:35:00,
2013-03-22 18:37:00,32.9,21.7,30.06,NNE,32,2.0,5.0,63,0.00,,,0.00,Wunderground v.1.15,2013-03-22 23:37:00,
2013-03-22 18:39:00,32.8,21.6,30.06,NNE,32,2.0,5.0,63,0.00,,,0.00,Wunderground v.1.15,2013-03-22 23:39:00,
2013-03-22 18:41:00,32.7,21.5,30.06,NNE,32,2.0,2.0,63,0.00,,,0.00,Wunderground v.1.15,2013-03-22 23:41:00,
2013-03-22 18:43:00,32.5,21.3,30.06,NNE,32,2.0,2.0,63,0.00,,,0.00,Wunderground v.1.15,2013-03-22 23:43:00,
2013-03-22 18:45:00,32.4,21.2,30.06,NNE,32,2.0,2.0,63,0.00,,,0.00,Wunderground v.1.15,2013-03-22 23:45:00,
2013-03-22 18:47:00,32.4,21.6,30.06,NNE,32,2.0,3.0,64,0.00,,,0.00,Wunderground v.1.15,2013-03-22 23:47:00,
2013-03-22 18:48:00,32.3,21.5,30.06,NNE,32,1.0,3.0,64,0.00,,,0.00,Wunderground v.1.15,2013-03-22 23:48:00,
2013-03-22 18:50:00,32.2,21.4,30.06,NNE,32,1.0,3.0,64,0.00,,,0.00,Wunderground v.1.15,2013-03-22 23:50:00,
2013-03-22 18:54:00,32.0,21.6,30.06,NNE,32,1.0,3.0,65,0.00,,,0.00,Wunderground v.1.15,2013-03-22 23:54:00,
2013-03-22 18:56:00,32.0,21.6,30.06,NNE,32,1.0,3.0,65,0.00,,,0.00,Wunderground v.1.15,2013-03-22 23:56:00,
2013-03-22 18:57:00,31.9,21.5,30.06,NNE,32,1.0,3.0,65,0.00,,,0.00,Wunderground v.1.15,2013-03-22 23:57:00,
2013-03-22 19:01:00,31.7,21.3,30.06,NNE,32,1.0,1.0,65,0.00,,,0.00,Wunderground v.1.15,2013-03-23 00:01:00,
2013-03-22 19:03:00,31.6,21.2,30.06,NNE,32,0.0,1.0,65,0.00,,,0.00,Wunderground v.1.15,2013-03-23 00:03:00,
2013-03-22 19:04:00,31.6,21.2,30.06,NNE,32,0.0,1.0,65,0.00,,,0.00,Wunderground v.1.15,2013-03-23 00:04:00,
2013-03-22 19:05:00,31.5,21.1,30.06,NNE,32,0.0,1.0,65,0.00,,,0.00,Wunderground v.1.15,2013-03-23 00:05:00,
2013-03-22 19:09:00,31.4,21.0,30.06,NNE,32,0.0,1.0,65,0.00,,,0.00,Wunderground v.1.15,2013-03-23 00:09:00,
2013-03-22 19:11:00,31.3,20.9,30.06,NNE,32,0.0,0.0,65,0.00,,,0.00,Wunderground v.1.15,2013-03-23 00:11:00,
2013-03-22 19:12:00,31.2,20.8,30.06,NNE,32,0.0,0.0,65,0.00,,,0.00,Wunderground v.1.15,2013-03-23 00:12:00,
2013-03-22 19:16:00,31.1,20.7,30.06,NNE,32,0.0,0.0,65,0.00,,,0.00,Wunderground v.1.15,2013-03-23 00:16:00,
2013-03-22 19:18:00,31.1,21.1,30.06,NNE,32,0.0,0.0,66,0.00,,,0.00,Wunderground v.1.15,2013-03-23 00:18:00,
2013-03-22 19:21:00,31.0,21.0,30.06,NNE,32,0.0,0.0,66,0.00,,,0.00,Wunderground v.1.15,2013-03-23 00:21:00,
2013-03-22 19:23:00,30.9,20.9,30.06,NNE,32,0.0,0.0,66,0.00,,,0.00,Wunderground v.1.15,2013-03-23 00:23:00,
2013-03-22 19:24:00,30.8,20.8,30.06,NNE,32,0.0,0.0,66,0.00,,,0.00,Wunderground v.1.15,2013-03-23 00:24:00,
2013-03-22 19:29:00,30.7,20.7,30.06,NNE,32,0.0,0.0,66,0.00,,,0.00,Wunderground v.1.15,2013-03-23 00:29:00,
2013-03-22 19:30:00,30.6,20.6,30.06,NNE,32,0.0,0.0,66,0.00,,,0.00,Wunderground v.1.15,2013-03-23 00:30:00,
2013-03-22 19:32:00,30.6,20.6,30.06,NNE,32,0.0,0.0,66,0.00,,,0.00,Wunderground v.1.15,2013-03-23 00:32:00,
2013-03-22 19:33:00,30.6,20.6,30.07,NNE,32,0.0,0.0,66,0.00,,,0.00,Wunderground v.1.15,2013-03-23 00:33:00,
2013-03-22 19:34:00,30.5,20.5,30.07,NNE,32,0.0,0.0,66,0.00,,,0.00,Wunderground v.1.15,2013-03-23 00:34:00,
2013-03-22 19:38:00,30.4,20.4,30.07,NNE,32,0.0,0.0,66,0.00,,,0.00,Wunderground v.1.15,2013-03-23 00:38:00,
2013-03-22 19:39:00,30.4,20.4,30.07,NNE,32,0.0,0.0,66,0.00,,,0.00,Wunderground v.1.15,2013-03-23 00:39:00,
2013-03-22 19:42:00,30.3,20.3,30.07,NNE,33,0.0,0.0,66,0.00,,,0.00,Wunderground v.1.15,2013-03-23 00:42:00,
2013-03-22 19:45:00,30.2,20.2,30.07,NNE,32,0.0,0.0,66,0.00,,,0.00,Wunderground v.1.15,2013-03-23 00:45:00,
2013-03-22 19:47:00,30.2,20.2,30.07,NNE,32,0.0,0.0,66,0.00,,,0.00,Wunderground v.1.15,2013-03-23 00:47:00,
2013-03-22 19:49:00,30.1,20.1,30.07,NNE,32,0.0,0.0,66,0.00,,,0.00,Wunderground v.1.15,2013-03-23 00:49:00,
2013-03-22 19:50:00,30.1,20.1,30.07,NNE,32,0.0,0.0,66,0.00,,,0.00,Wunderground v.1.15,2013-03-23 00:50:00,
2013-03-22 19:53:00,30.0,20.0,30.07,NNE,32,0.0,0.0,66,0.00,,,0.00,Wunderground v.1.15,2013-03-23 00:53:00,
2013-03-22 19:55:00,29.9,19.9,30.07,NNE,32,0.0,0.0,66,0.00,,,0.00,Wunderground v.1.15,2013-03-23 00:55:00,
2013-03-22 19:57:00,29.8,19.8,30.07,NNE,32,0.0,0.0,66,0.00,,,0.00,Wunderground v.1.15,2013-03-23 00:57:00,
2013-03-22 20:00:00,29.8,20.2,30.07,NNE,32,0.0,1.0,67,0.00,,,0.00,Wunderground v.1.15,2013-03-23 01:00:00,
2013-03-22 20:01:00,29.8,20.2,30.07,NNE,32,0.0,1.0,67,0.00,,,0.00,Wunderground v.1.15,2013-03-23 01:01:00,
2013-03-22 20:04:00,29.7,20.1,30.08,NNE,32,1.0,1.0,67,0.00,,,0.00,Wunderground v.1.15,2013-03-23 01:04:00,
2013-03-22 20:05:00,29.7,20.1,30.08,NNE,32,1.0,1.0,67,0.00,,,0.00,Wunderground v.1.15,2013-03-23 01:05:00,
2013-03-22 20:08:00,29.6,20.3,30.08,NNE,32,1.0,2.0,68,0.00,,,0.00,Wunderground v.1.15,2013-03-23 01:08:00,
2013-03-22 20:11:00,29.6,20.0,30.08,NNE,32,1.0,2.0,67,0.00,,,0.00,Wunderground v.1.15,2013-03-23 01:11:00,
2013-03-22 20:13:00,29.6,20.3,30.08,NNE,32,1.0,2.0,68,0.00,,,0.00,Wunderground v.1.15,2013-03-23 01:13:00,
2013-03-22 20:17:00,29.5,20.2,30.08,NNE,32,2.0,2.0,68,0.00,,,0.00,Wunderground v.1.15,2013-03-23 01:17:00,
2013-03-22 20:18:00,29.5,20.2,30.08,NNE,32,1.0,2.0,68,0.00,,,0.00,Wunderground v.1.15,2013-03-23 01:18:00,
2013-03-22 20:22:00,29.5,20.6,30.08,NNE,32,1.0,3.0,69,0.00,,,0.00,Wunderground v.1.15,2013-03-23 01:22:00,
2013-03-22 20:24:00,29.4,20.5,30.08,NNE,33,1.0,3.0,69,0.00,,,0.00,Wunderground v.1.15,2013-03-23 01:24:00,
2013-03-22 20:25:00,29.4,20.5,30.08,NNE,33,2.0,3.0,69,0.00,,,0.00,Wunderground v.1.15,2013-03-23 01:25:00,
2013-03-22 20:26:00,29.4,20.5,30.08,NNE,33,2.0,3.0,69,0.00,,,0.00,Wunderground v.1.15,2013-03-23 01:26:00,
2013-03-22 20:29:00,29.3,20.4,30.08,NNE,33,2.0,3.0,69,0.00,,,0.00,Wunderground v.1.15,2013-03-23 01:29:00,
2013-03-22 20:33:00,29.3,20.4,30.08,NNE,33,1.0,3.0,69,0.00,,,0.00,Wunderground v.1.15,2013-03-23 01:33:00,
2013-03-22 20:35:00,29.3,20.4,30.08,NNE,33,2.0,3.0,69,0.00,,,0.00,Wunderground v.1.15,2013-03-23 01:35:00,
2013-03-22 20:36:00,29.3,20.4,30.08,NNE,33,2.0,3.0,69,0.00,,,0.00,Wunderground v.1.15,2013-03-23 01:36:00,
2013-03-22 20:37:00,29.3,20.4,30.08,NNE,33,2.0,3.0,69,0.00,,,0.00,Wunderground v.1.15,2013-03-23 01:37:00,
2013-03-22 20:39:00,29.3,20.4,30.08,NNE,33,2.0,3.0,69,0.00,,,0.00,Wunderground v.1.15,2013-03-23 01:39:00,
2013-03-22 20:43:00,29.3,20.4,30.08,NNE,33,2.0,2.0,69,0.00,,,0.00,Wunderground v.1.15,2013-03-23 01:43:00,
2013-03-22 20:44:00,29.3,20.4,30.08,NNE,33,2.0,2.0,69,0.00,,,0.00,Wunderground v.1.15,2013-03-23 01:44:00,
2013-03-22 20:45:00,29.3,20.4,30.08,NNE,26,2.0,5.0,69,0.00,,,0.00,Wunderground v.1.15,2013-03-23 01:45:00,
2013-03-22 20:47:00,29.3,20.4,30.08,NNE,23,2.0,5.0,69,0.00,,,0.00,Wunderground v.1.15,2013-03-23 01:47:00,
2013-03-22 20:50:00,29.3,20.4,30.09,NNE,23,2.0,2.0,69,0.00,,,0.00,Wunderground v.1.15,2013-03-23 01:50:00,
2013-03-22 20:52:00,29.3,20.4,30.09,NNE,23,2.0,2.0,69,0.00,,,0.00,Wunderground v.1.15,2013-03-23 01:52:00,
2013-03-22 20:57:00,29.3,20.4,30.09,NNE,22,2.0,2.0,69,0.00,,,0.00,Wunderground v.1.15,2013-03-23 01:57:00,
2013-03-22 20:58:00,29.3,20.4,30.09,NNE,23,2.0,4.0,69,0.00,,,0.00,Wunderground v.1.15,2013-03-23 01:58:00,
2013-03-22 20:59:00,29.3,20.4,30.09,NNE,24,2.0,4.0,69,0.00,,,0.00,Wunderground v.1.15,2013-03-23 01:59:00,
2013-03-22 21:01:00,29.3,20.4,30.09,NNE,24,2.0,2.0,69,0.00,,,0.00,Wunderground v.1.15,2013-03-23 02:01:00,
2013-03-22 21:03:00,29.3,20.4,30.09,NNE,24,2.0,2.0,69,0.00,,,0.00,Wunderground v.1.15,2013-03-23 02:03:00,
2013-03-22 21:04:00,29.3,20.4,30.09,NNE,24,2.0,2.0,69,0.00,,,0.00,Wunderground v.1.15,2013-03-23 02:04:00,
2013-03-22 21:07:00,29.4,20.5,30.09,NNE,24,2.0,2.0,69,0.00,,,0.00,Wunderground v.1.15,2013-03-23 02:07:00,
2013-03-22 21:08:00,29.4,20.5,30.09,NNE,24,2.0,2.0,69,0.00,,,0.00,Wunderground v.1.15,2013-03-23 02:08:00,
2013-03-22 21:09:00,29.4,20.5,30.08,NNE,24,2.0,4.0,69,0.00,,,0.00,Wunderground v.1.15,2013-03-23 02:09:00,
2013-03-22 21:14:00,29.4,20.1,30.08,NNE,24,2.0,4.0,68,0.00,,,0.00,Wunderground v.1.15,2013-03-23 02:14:00,
2013-03-22 21:15:00,29.4,20.1,30.09,NNE,24,2.0,4.0,68,0.00,,,0.00,Wunderground v.1.15,2013-03-23 02:15:00,
2013-03-22 21:17:00,29.4,20.1,30.09,NNE,24,2.0,4.0,68,0.00,,,0.00,Wunderground v.1.15,2013-03-23 02:17:00,
2013-03-22 21:21:00,29.3,20.0,30.09,NNE,24,2.0,2.0,68,0.00,,,0.00,Wunderground v.1.15,2013-03-23 02:21:00,
2013-03-22 21:22:00,29.4,20.1,30.09,NNE,24,1.0,2.0,68,0.00,,,0.00,Wunderground v.1.15,2013-03-23 02:22:00,
2013-03-22 21:26:00,29.3,19.7,30.09,NNE,24,1.0,2.0,67,0.00,,,0.00,Wunderground v.1.15,2013-03-23 02:26:00,
2013-03-22 21:27:00,29.3,19.7,30.09,NNE,24,1.0,2.0,67,0.00,,,0.00,Wunderground v.1.15,2013-03-23 02:27:00,
2013-03-22 21:29:00,29.3,19.7,30.09,NNE,24,1.0,2.0,67,0.00,,,0.00,Wunderground v.1.15,2013-03-23 02:29:00,
2013-03-22 21:30:00,29.3,19.7,30.09,NNE,24,1.0,1.0,67,0.00,,,0.00,Wunderground v.1.15,2013-03-23 02:30:00,
2013-03-22 21:32:00,29.3,19.7,30.09,NNE,24,1.0,1.0,67,0.00,,,0.00,Wunderground v.1.15,2013-03-23 02:32:00,
2013-03-22 21:36:00,29.3,19.7,30.09,NNE,24,1.0,2.0,67,0.00,,,0.00,Wunderground v.1.15,2013-03-23 02:36:00,
2013-03-22 21:37:00,29.2,19.6,30.09,NNE,24,1.0,2.0,67,0.00,,,0.00,Wunderground v.1.15,2013-03-23 02:37:00,
2013-03-22 21:38:00,29.2,19.9,30.09,NNE,24,1.0,2.0,68,0.00,,,0.00,Wunderground v.1.15,2013-03-23 02:38:00,
2013-03-22 21:39:00,29.2,19.9,30.09,NNE,24,1.0,2.0,68,0.00,,,0.00,Wunderground v.1.15,2013-03-23 02:39:00,
2013-03-22 21:44:00,29.1,19.8,30.09,NNE,26,1.0,3.0,68,0.00,,,0.00,Wunderground v.1.15,2013-03-23 02:44:00,
2013-03-22 21:46:00,29.1,19.8,30.09,NNE,26,1.0,3.0,68,0.00,,,0.00,Wunderground v.1.15,2013-03-23 02:46:00,
2013-03-22 21:49:00,29.1,19.8,30.09,NNE,26,2.0,4.0,68,0.00,,,0.00,Wunderground v.1.15,2013-03-23 02:49:00,
2013-03-22 21:50:00,29.0,19.8,30.09,NNE,26,2.0,3.0,68,0.00,,,0.00,Wunderground v.1.15,2013-03-23 02:50:00,
2013-03-22 21:51:00,29.0,19.8,30.09,NNE,26,2.0,3.0,68,0.00,,,0.00,Wunderground v.1.15,2013-03-23 02:51:00,
2013-03-22 21:55:00,28.9,19.7,30.09,NNE,26,2.0,3.0,68,0.00,,,0.00,Wunderground v.1.15,2013-03-23 02:55:00,
2013-03-22 21:56:00,28.9,19.7,30.09,NNE,26,2.0,3.0,68,0.00,,,0.00,Wunderground v.1.15,2013-03-23 02:56:00,
2013-03-22 21:58:00,28.9,19.7,30.09,NNE,26,1.0,3.0,68,0.00,,,0.00,Wunderground v.1.15,2013-03-23 02:58:00,
2013-03-22 22:03:00,28.8,19.6,30.10,NNE,26,1.0,1.0,68,0.00,,,0.00,Wunderground v.1.15,2013-03-23 03:03:00,
2013-03-22 22:04:00,28.7,19.5,30.10,NNE,26,1.0,1.0,68,0.00,,,0.00,Wunderground v.1.15,2013-03-23 03:04:00,
2013-03-22 22:08:00,28.7,19.5,30.10,NNE,26,0.0,2.0,68,0.00,,,0.00,Wunderground v.1.15,2013-03-23 03:08:00,
2013-03-22 22:10:00,28.6,19.7,30.10,NNE,26,0.0,2.0,69,0.00,,,0.00,Wunderground v.1.15,2013-03-23 03:10:00,
2013-03-22 22:12:00,28.5,19.6,30.09,NNE,26,0.0,1.0,69,0.00,,,0.00,Wunderground v.1.15,2013-03-23 03:12:00,
2013-03-22 22:16:00,28.4,19.5,30.09,NNE,26,1.0,2.0,69,0.00,,,0.00,Wunderground v.1.15,2013-03-23 03:16:00,
2013-03-22 22:17:00,28.4,19.5,30.09,NNE,26,1.0,2.0,69,0.00,,,0.00,Wunderground v.1.15,2013-03-23 03:17:00,
2013-03-22 22:22:00,28.3,19.8,30.09,NNE,26,1.0,1.0,70,0.00,,,0.00,Wunderground v.1.15,2013-03-23 03:22:00,
2013-03-22 22:23:00,28.3,19.8,30.09,NNE,26,1.0,2.0,70,0.00,,,0.00,Wunderground v.1.15,2013-03-23 03:23:00,
2013-03-22 22:24:00,28.3,19.8,30.09,NNE,26,1.0,2.0,70,0.00,,,0.00,Wunderground v.1.15,2013-03-23 03:24:00,
2013-03-22 22:27:00,28.2,19.7,30.09,NNE,26,1.0,2.0,70,0.00,,,0.00,Wunderground v.1.15,2013-03-23 03:27:00,
2013-03-22 22:29:00,28.2,20.0,30.09,NNE,26,1.0,2.0,71,0.00,,,0.00,Wunderground v.1.15,2013-03-23 03:29:00,
2013-03-22 22:31:00,28.2,20.0,30.09,NNE,26,1.0,2.0,71,0.00,,,0.00,Wunderground v.1.15,2013-03-23 03:31:00,
2013-03-22 22:34:00,28.1,19.9,30.09,NNE,26,1.0,1.0,71,0.00,,,0.00,Wunderground v.1.15,2013-03-23 03:34:00,
2013-03-22 22:35:00,28.1,19.9,30.09,NNE,26,1.0,1.0,71,0.00,,,0.00,Wunderground v.1.15,2013-03-23 03:35:00,
2013-03-22 22:36:00,28.1,19.9,30.09,NNE,26,1.0,1.0,71,0.00,,,0.00,Wunderground v.1.15,2013-03-23 03:36:00,
2013-03-22 22:38:00,28.0,19.8,30.09,NNE,26,1.0,1.0,71,0.00,,,0.00,Wunderground v.1.15,2013-03-23 03:38:00,
2013-03-22 22:40:00,28.0,19.8,30.09,NNE,26,0.0,1.0,71,0.00,,,0.00,Wunderground v.1.15,2013-03-23 03:40:00,
2013-03-22 22:42:00,28.0,19.8,30.09,NNE,26,0.0,0.0,71,0.00,,,0.00,Wunderground v.1.15,2013-03-23 03:42:00,
2013-03-22 22:44:00,28.0,19.8,30.09,NNE,26,0.0,0.0,71,0.00,,,0.00,Wunderground v.1.15,2013-03-23 03:44:00,
2013-03-22 22:46:00,27.9,20.0,30.09,NNE,26,0.0,0.0,72,0.00,,,0.00,Wunderground v.1.15,2013-03-23 03:46:00,
2013-03-22 22:49:00,27.9,20.0,30.09,NNE,26,0.0,0.0,72,0.00,,,0.00,Wunderground v.1.15,2013-03-23 03:49:00,
2013-03-22 22:50:00,27.9,20.0,30.09,NNE,26,0.0,0.0,72,0.00,,,0.00,Wunderground v.1.15,2013-03-23 03:50:00,
2013-03-22 22:51:00,27.9,20.0,30.09,NNE,26,0.0,0.0,72,0.00,,,0.00,Wunderground v.1.15,2013-03-23 03:51:00,
2013-03-22 22:52:00,27.9,20.0,30.09,NNE,26,0.0,0.0,72,0.00,,,0.00,Wunderground v.1.15,2013-03-23 03:52:00,
2013-03-22 22:56:00,27.9,20.4,30.09,NNE,26,0.0,0.0,73,0.00,,,0.00,Wunderground v.1.15,2013-03-23 03:56:00,
2013-03-22 22:58:00,28.0,20.1,30.09,NNE,26,0.0,1.0,72,0.00,,,0.00,Wunderground v.1.15,2013-03-23 03:58:00,
2013-03-22 22:59:00,28.0,20.1,30.09,NNE,26,0.0,1.0,72,0.00,,,0.00,Wunderground v.1.15,2013-03-23 03:59:00,
2013-03-22 23:00:00,28.0,20.1,30.09,NNE,26,0.0,0.0,72,0.00,,,0.00,Wunderground v.1.15,2013-03-23 04:00:00,
2013-03-22 23:01:00,28.0,20.1,30.09,NNE,26,0.0,0.0,72,0.00,,,0.00,Wunderground v.1.15,2013-03-23 04:01:00,
2013-03-22 23:02:00,28.1,20.2,30.09,NNE,26,0.0,0.0,72,0.00,,,0.00,Wunderground v.1.15,2013-03-23 04:02:00,
2013-03-22 23:03:00,28.1,20.2,30.09,NNE,26,0.0,0.0,72,0.00,,,0.00,Wunderground v.1.15,2013-03-23 04:03:00,
2013-03-22 23:07:00,28.2,20.7,30.10,NNE,26,0.0,0.0,73,0.00,,,0.00,Wunderground v.1.15,2013-03-23 04:07:00,
2013-03-22 23:12:00,28.3,20.7,30.10,NNE,26,0.0,0.0,73,0.00,,,0.00,Wunderground v.1.15,2013-03-23 04:12:00,
2013-03-22 23:15:00,28.3,20.7,30.10,NNE,26,0.0,1.0,73,0.00,,,0.00,Wunderground v.1.15,2013-03-23 04:15:00,
2013-03-22 23:17:00,28.4,20.8,30.10,NNE,26,0.0,1.0,73,0.00,,,0.00,Wunderground v.1.15,2013-03-23 04:17:00,
2013-03-22 23:19:00,28.4,20.8,30.09,NNE,26,0.0,1.0,73,0.00,,,0.00,Wunderground v.1.15,2013-03-23 04:19:00,
2013-03-22 23:20:00,28.4,20.8,30.09,NNE,26,0.0,0.0,73,0.00,,,0.00,Wunderground v.1.15,2013-03-23 04:20:00,
2013-03-22 23:24:00,28.5,20.9,30.09,NNE,26,0.0,1.0,73,0.00,,,0.00,Wunderground v.1.15,2013-03-23 04:24:00,
2013-03-22 23:26:00,28.5,20.9,30.09,NNE,26,0.0,1.0,73,0.00,,,0.00,Wunderground v.1.15,2013-03-23 04:26:00,
2013-03-22 23:27:00,28.5,20.9,30.09,NNE,26,0.0,1.0,73,0.00,,,0.00,Wunderground v.1.15,2013-03-23 04:27:00,
2013-03-22 23:29:00,28.5,20.9,30.09,NNE,26,0.0,1.0,73,0.00,,,0.00,Wunderground v.1.15,2013-03-23 04:29:00,
2013-03-22 23:32:00,28.5,20.9,30.10,NNE,26,1.0,1.0,73,0.00,,,0.00,Wunderground v.1.15,2013-03-23 04:32:00,
2013-03-22 23:34:00,28.6,21.0,30.10,NNE,26,1.0,1.0,73,0.00,,,0.00,Wunderground v.1.15,2013-03-23 04:34:00,
2013-03-22 23:35:00,28.6,21.0,30.10,NNE,26,0.0,1.0,73,0.00,,,0.00,Wunderground v.1.15,2013-03-23 04:35:00,
2013-03-22 23:39:00,28.6,21.0,30.10,NNE,26,0.0,1.0,73,0.00,,,0.00,Wunderground v.1.15,2013-03-23 04:39:00,
2013-03-22 23:40:00,28.6,21.0,30.10,NNE,26,0.0,0.0,73,0.00,,,0.00,Wunderground v.1.15,2013-03-23 04:40:00,
2013-03-22 23:41:00,28.6,21.0,30.10,NNE,26,0.0,0.0,73,0.00,,,0.00,Wunderground v.1.15,2013-03-23 04:41:00,
2013-03-22 23:42:00,28.6,21.0,30.10,NNE,26,0.0,0.0,73,0.00,,,0.00,Wunderground v.1.15,2013-03-23 04:42:00,
2013-03-22 23:45:00,28.6,21.0,30.10,NNE,26,0.0,2.0,73,0.00,,,0.00,Wunderground v.1.15,2013-03-23 04:45:00,
2013-03-22 23:46:00,28.6,20.7,30.10,NNE,26,1.0,2.0,72,0.00,,,0.00,Wunderground v.1.15,2013-03-23 04:46:00,
2013-03-22 23:47:00,28.6,21.0,30.10,NNE,26,1.0,2.0,73,0.00,,,0.00,Wunderground v.1.15,2013-03-23 04:47:00,
2013-03-22 23:51:00,28.7,21.1,30.09,NNE,26,1.0,1.0,73,0.00,,,0.00,Wunderground v.1.15,2013-03-23 04:51:00,
2013-03-22 23:52:00,28.7,21.1,30.09,NNE,26,1.0,1.0,73,0.00,,,0.00,Wunderground v.1.15,2013-03-23 04:52:00,
2013-03-22 23:54:00,28.7,21.1,30.09,NNE,26,1.0,2.0,73,0.00,,,0.00,Wunderground v.1.15,2013-03-23 04:54:00,
2013-03-22 23:56:00,28.7,21.1,30.09,NNE,26,1.0,2.0,73,0.00,,,0.00,Wunderground v.1.15,2013-03-23 04:56:00,
2013-03-22 23:58:00,28.7,21.1,30.09,NNE,26,1.0,2.0,73,0.00,,,0.00,Wunderground v.1.15,2013-03-23 04:58:00,